UAE9911 OMDW-DNMM
Flight info
| Callsign | UAE9911 |
|---|---|
| Flight time | N/A |
| Altitude | 32000 |
| Route | ANVIX R401 GIDIS G783 UKRAG/N0506F310 L710 KUKDI/N0503F320 B400 RIGAM B404 DEMGO UB404 HARGA UM216 XAPSA/N0497F340 M216 RUDOL UM216 LOV UL432 PATAR UN553 NALOS UT136 BUN UH1 MONEN UL433 LURTI/N0488F360 UL433 EDGOT EDGOT1N |
| Aircraft | B77L/H-SDE1E2E3FGHIJ2J3J4J5M1RWXY/LB1D1 |
Departure
| Time | N/A |
|---|---|
| Airport | Al Maktoum International Airport (OMDW) |
Arrival
| Time | 2026-04-27 18:26 |
|---|---|
| Airport | Murtala Muhammed International Airport (DNMM) |
| Time | Latitude | Longitude | Altitude | Speed | Heading |
|---|---|---|---|---|---|
| 2026-04-27 10:48 | 23.76487 | 55.45905 | 31755 ft | 498 kts | 200° |
| 2026-04-27 10:48 | 23.73124 | 55.44903 | 31804 ft | 497 kts | 200° |
| 2026-04-27 10:48 | 23.66478 | 55.42925 | 31810 ft | 494 kts | 200° |
| 2026-04-27 10:49 | 23.59854 | 55.40954 | 31815 ft | 493 kts | 200° |
| 2026-04-27 10:49 | 23.53134 | 55.39382 | 31803 ft | 501 kts | 188° |
| 2026-04-27 10:50 | 23.46121 | 55.39883 | 31815 ft | 513 kts | 171° |
| 2026-04-27 10:50 | 23.39221 | 55.42025 | 31808 ft | 517 kts | 167° |
| 2026-04-27 10:51 | 23.32323 | 55.44275 | 31813 ft | 518 kts | 167° |
| 2026-04-27 10:51 | 23.25399 | 55.46490 | 31807 ft | 519 kts | 168° |
| 2026-04-27 10:52 | 23.18462 | 55.48678 | 31803 ft | 520 kts | 168° |
| 2026-04-27 10:52 | 23.11550 | 55.50857 | 31809 ft | 521 kts | 168° |
| 2026-04-27 10:53 | 23.01101 | 55.54142 | 31803 ft | 522 kts | 168° |
| 2026-04-27 10:54 | 22.94110 | 55.56277 | 31796 ft | 522 kts | 168° |
| 2026-04-27 10:54 | 22.87113 | 55.58401 | 31810 ft | 522 kts | 168° |
| 2026-04-27 10:55 | 22.80111 | 55.60535 | 31803 ft | 523 kts | 168° |
| 2026-04-27 10:55 | 22.73113 | 55.62669 | 31793 ft | 523 kts | 168° |
| 2026-04-27 10:56 | 22.66109 | 55.64802 | 31788 ft | 522 kts | 168° |
| 2026-04-27 10:56 | 22.59116 | 55.66933 | 31798 ft | 522 kts | 168° |
| 2026-04-27 10:57 | 22.52133 | 55.69075 | 31800 ft | 522 kts | 168° |
| 2026-04-27 10:57 | 22.45142 | 55.71219 | 31800 ft | 522 kts | 168° |
| 2026-04-27 10:58 | 22.38149 | 55.73358 | 31782 ft | 522 kts | 167° |
| 2026-04-27 10:58 | 22.31160 | 55.75494 | 31794 ft | 522 kts | 167° |
| 2026-04-27 10:59 | 22.24119 | 55.77344 | 31779 ft | 519 kts | 175° |
| 2026-04-27 10:59 | 22.16968 | 55.78081 | 31769 ft | 516 kts | 179° |
| 2026-04-27 11:00 | 22.06229 | 55.79079 | 31790 ft | 517 kts | 178° |
| 2026-04-27 11:00 | 21.99062 | 55.79798 | 31790 ft | 518 kts | 178° |
| 2026-04-27 11:01 | 21.91886 | 55.80524 | 31781 ft | 518 kts | 178° |
| 2026-04-27 11:01 | 21.84703 | 55.81247 | 31784 ft | 518 kts | 178° |
| 2026-04-27 11:02 | 21.77566 | 55.81963 | 31786 ft | 519 kts | 178° |
| 2026-04-27 11:02 | 21.70374 | 55.82683 | 31785 ft | 519 kts | 178° |
| 2026-04-27 11:03 | 21.63187 | 55.83392 | 31778 ft | 519 kts | 178° |
| 2026-04-27 11:03 | 21.55996 | 55.84093 | 31786 ft | 519 kts | 178° |
| 2026-04-27 11:04 | 21.48802 | 55.84794 | 31784 ft | 519 kts | 178° |
| 2026-04-27 11:04 | 21.41611 | 55.85496 | 31779 ft | 519 kts | 178° |
| 2026-04-27 11:05 | 21.34411 | 55.86198 | 31779 ft | 519 kts | 178° |
| 2026-04-27 11:05 | 21.27217 | 55.86899 | 31775 ft | 519 kts | 178° |
| 2026-04-27 11:06 | 21.21234 | 55.87478 | 31773 ft | 519 kts | 178° |
| 2026-04-27 11:06 | 21.14039 | 55.88169 | 31775 ft | 519 kts | 178° |
| 2026-04-27 11:07 | 21.06839 | 55.88859 | 31779 ft | 520 kts | 178° |
| 2026-04-27 11:07 | 20.99636 | 55.89551 | 31769 ft | 520 kts | 178° |
| 2026-04-27 11:08 | 20.92423 | 55.90242 | 31767 ft | 520 kts | 178° |
| 2026-04-27 11:08 | 20.85217 | 55.90934 | 31755 ft | 520 kts | 177° |
| 2026-04-27 11:09 | 20.78010 | 55.91640 | 31756 ft | 520 kts | 177° |
| 2026-04-27 11:09 | 20.70801 | 55.92352 | 31758 ft | 520 kts | 177° |
| 2026-04-27 11:10 | 20.63590 | 55.93061 | 31762 ft | 520 kts | 177° |
| 2026-04-27 11:10 | 20.56382 | 55.93768 | 31753 ft | 520 kts | 177° |
| 2026-04-27 11:11 | 20.49172 | 55.94473 | 31764 ft | 520 kts | 177° |
| 2026-04-27 11:11 | 20.41958 | 55.95179 | 31773 ft | 521 kts | 177° |
| 2026-04-27 11:12 | 20.34743 | 55.95884 | 31775 ft | 521 kts | 177° |
| 2026-04-27 11:12 | 20.27569 | 55.96580 | 31773 ft | 521 kts | 177° |
| 2026-04-27 11:13 | 20.20353 | 55.97265 | 31777 ft | 520 kts | 177° |
| 2026-04-27 11:13 | 20.13094 | 55.97954 | 31774 ft | 520 kts | 177° |
| 2026-04-27 11:14 | 20.05881 | 55.98520 | 31779 ft | 518 kts | 180° |
| 2026-04-27 11:14 | 19.98728 | 55.98683 | 31777 ft | 518 kts | 181° |
| 2026-04-27 11:15 | 19.91523 | 55.98819 | 31778 ft | 518 kts | 181° |
| 2026-04-27 11:15 | 19.84313 | 55.98982 | 31778 ft | 518 kts | 180° |
| 2026-04-27 11:16 | 19.77110 | 55.99159 | 31777 ft | 518 kts | 180° |
| 2026-04-27 11:16 | 19.69898 | 55.99335 | 31772 ft | 518 kts | 180° |
| 2026-04-27 11:17 | 19.62685 | 55.99509 | 31782 ft | 519 kts | 180° |
| 2026-04-27 11:17 | 19.55471 | 55.99641 | 31777 ft | 518 kts | 184° |
| 2026-04-27 11:18 | 19.48472 | 55.98183 | 31776 ft | 512 kts | 202° |
| 2026-04-27 11:18 | 19.42151 | 55.94835 | 31776 ft | 508 kts | 213° |
| 2026-04-27 11:19 | 19.36061 | 55.91012 | 31773 ft | 510 kts | 213° |
| 2026-04-27 11:19 | 19.29918 | 55.87238 | 31774 ft | 511 kts | 212° |
| 2026-04-27 11:20 | 19.23737 | 55.83494 | 31775 ft | 512 kts | 212° |
| 2026-04-27 11:20 | 19.17540 | 55.79747 | 31775 ft | 513 kts | 212° |
| 2026-04-27 11:21 | 19.11385 | 55.76022 | 31766 ft | 513 kts | 212° |
| 2026-04-27 11:21 | 19.05149 | 55.72251 | 31770 ft | 513 kts | 212° |
| 2026-04-27 11:22 | 18.98992 | 55.68543 | 31772 ft | 513 kts | 212° |
| 2026-04-27 11:22 | 18.92785 | 55.64815 | 31777 ft | 513 kts | 212° |
| 2026-04-27 11:23 | 18.86583 | 55.61090 | 31773 ft | 513 kts | 212° |
| 2026-04-27 11:23 | 18.80388 | 55.57369 | 31773 ft | 512 kts | 211° |
| 2026-04-27 11:24 | 18.74197 | 55.53655 | 31779 ft | 512 kts | 211° |
| 2026-04-27 11:24 | 18.68002 | 55.49941 | 31778 ft | 512 kts | 211° |
| 2026-04-27 11:25 | 18.61797 | 55.46224 | 31783 ft | 512 kts | 211° |
| 2026-04-27 11:25 | 18.55598 | 55.42514 | 31785 ft | 513 kts | 211° |
| 2026-04-27 11:26 | 18.49392 | 55.38802 | 31781 ft | 513 kts | 211° |
| 2026-04-27 11:26 | 18.43176 | 55.35087 | 31787 ft | 513 kts | 211° |
| 2026-04-27 11:27 | 18.36962 | 55.31377 | 31784 ft | 513 kts | 211° |
| 2026-04-27 11:27 | 18.30747 | 55.27669 | 31784 ft | 514 kts | 211° |
| 2026-04-27 11:28 | 18.24533 | 55.23962 | 31785 ft | 514 kts | 211° |
| 2026-04-27 11:28 | 18.18318 | 55.20255 | 31783 ft | 514 kts | 211° |
| 2026-04-27 11:29 | 18.12009 | 55.16715 | 31783 ft | 515 kts | 205° |
| 2026-04-27 11:29 | 18.05450 | 55.13800 | 31789 ft | 516 kts | 204° |
| 2026-04-27 11:30 | 17.98829 | 55.10889 | 31792 ft | 516 kts | 204° |
| 2026-04-27 11:30 | 17.92215 | 55.07942 | 31800 ft | 516 kts | 205° |
| 2026-04-27 11:31 | 17.85605 | 55.04977 | 31794 ft | 517 kts | 204° |
| 2026-04-27 11:31 | 17.78995 | 55.02012 | 31805 ft | 517 kts | 204° |
| 2026-04-27 11:32 | 17.72369 | 54.99046 | 31801 ft | 517 kts | 204° |
| 2026-04-27 11:32 | 17.65748 | 54.96085 | 31814 ft | 518 kts | 204° |
| 2026-04-27 11:33 | 17.59124 | 54.93125 | 31817 ft | 518 kts | 204° |
| 2026-04-27 11:33 | 17.52495 | 54.90165 | 31827 ft | 518 kts | 204° |
| 2026-04-27 11:34 | 17.45868 | 54.87209 | 31828 ft | 518 kts | 204° |
| 2026-04-27 11:34 | 17.39242 | 54.84254 | 31851 ft | 518 kts | 204° |
| 2026-04-27 11:35 | 17.32614 | 54.81301 | 31849 ft | 518 kts | 204° |
| 2026-04-27 11:35 | 17.26056 | 54.78200 | 31843 ft | 517 kts | 210° |
| 2026-04-27 11:36 | 17.19983 | 54.74201 | 31841 ft | 516 kts | 214° |
| 2026-04-27 11:36 | 17.13970 | 54.70095 | 31858 ft | 516 kts | 214° |
| 2026-04-27 11:37 | 17.07921 | 54.66029 | 31858 ft | 517 kts | 214° |
| 2026-04-27 11:37 | 17.01861 | 54.61986 | 31838 ft | 517 kts | 213° |
| 2026-04-27 11:38 | 16.95798 | 54.57940 | 31859 ft | 517 kts | 213° |
| 2026-04-27 11:38 | 16.89736 | 54.53893 | 31848 ft | 517 kts | 213° |
| 2026-04-27 11:39 | 16.83674 | 54.49851 | 31834 ft | 517 kts | 213° |
| 2026-04-27 11:39 | 16.77620 | 54.45814 | 31840 ft | 517 kts | 213° |
| 2026-04-27 11:40 | 16.71563 | 54.41776 | 31824 ft | 516 kts | 213° |
| 2026-04-27 11:40 | 16.65544 | 54.37766 | 31821 ft | 516 kts | 213° |
| 2026-04-27 11:41 | 16.59491 | 54.33737 | 31822 ft | 516 kts | 213° |
| 2026-04-27 11:41 | 16.53436 | 54.29709 | 31820 ft | 517 kts | 213° |
| 2026-04-27 11:42 | 16.47371 | 54.25678 | 31819 ft | 517 kts | 213° |
| 2026-04-27 11:42 | 16.41305 | 54.21649 | 31819 ft | 517 kts | 213° |
| 2026-04-27 11:43 | 16.35238 | 54.17622 | 31838 ft | 517 kts | 213° |
| 2026-04-27 11:43 | 16.29163 | 54.13593 | 31822 ft | 517 kts | 213° |
| 2026-04-27 11:44 | 16.23092 | 54.09570 | 31819 ft | 518 kts | 213° |
| 2026-04-27 11:44 | 16.17014 | 54.05545 | 31825 ft | 518 kts | 213° |
| 2026-04-27 11:45 | 16.11965 | 54.02203 | 31821 ft | 518 kts | 213° |
| 2026-04-27 11:45 | 16.04862 | 53.97506 | 31822 ft | 518 kts | 213° |
| 2026-04-27 11:46 | 15.98787 | 53.93491 | 31819 ft | 518 kts | 213° |
| 2026-04-27 11:46 | 15.92710 | 53.89477 | 31819 ft | 518 kts | 213° |
| 2026-04-27 11:47 | 15.86630 | 53.85463 | 31841 ft | 517 kts | 213° |
| 2026-04-27 11:47 | 15.80570 | 53.81424 | 31838 ft | 518 kts | 213° |
| 2026-04-27 11:48 | 15.74516 | 53.77373 | 31823 ft | 518 kts | 213° |
| 2026-04-27 11:48 | 15.68464 | 53.73330 | 31823 ft | 518 kts | 213° |
| 2026-04-27 11:49 | 15.62404 | 53.69290 | 31836 ft | 518 kts | 213° |
| 2026-04-27 11:49 | 15.56343 | 53.65251 | 31837 ft | 518 kts | 213° |
| 2026-04-27 11:50 | 15.50279 | 53.61213 | 31836 ft | 518 kts | 213° |
| 2026-04-27 11:50 | 15.44255 | 53.57205 | 31819 ft | 518 kts | 213° |
| 2026-04-27 11:51 | 15.38157 | 53.53228 | 31837 ft | 518 kts | 212° |
| 2026-04-27 11:52 | 15.28942 | 53.47361 | 31823 ft | 518 kts | 212° |
| 2026-04-27 11:52 | 15.22804 | 53.43440 | 31825 ft | 518 kts | 212° |
| 2026-04-27 11:53 | 15.16670 | 53.39513 | 31837 ft | 518 kts | 212° |
| 2026-04-27 11:53 | 15.10540 | 53.35588 | 31841 ft | 518 kts | 212° |
| 2026-04-27 11:54 | 15.04406 | 53.31666 | 31835 ft | 518 kts | 212° |
| 2026-04-27 11:54 | 14.99311 | 53.28410 | 31820 ft | 518 kts | 212° |
| 2026-04-27 11:55 | 14.93174 | 53.24491 | 31819 ft | 518 kts | 212° |
| 2026-04-27 11:55 | 14.87043 | 53.20577 | 31835 ft | 518 kts | 212° |
| 2026-04-27 11:56 | 14.80899 | 53.16658 | 31833 ft | 519 kts | 212° |
| 2026-04-27 11:56 | 14.74766 | 53.12748 | 31818 ft | 519 kts | 212° |
| 2026-04-27 11:57 | 14.68723 | 53.08682 | 31815 ft | 518 kts | 220° |
| 2026-04-27 11:57 | 14.63761 | 53.03328 | 31835 ft | 517 kts | 234° |
| 2026-04-27 11:58 | 14.60028 | 52.97014 | 31838 ft | 516 kts | 241° |
| 2026-04-27 11:58 | 14.56470 | 52.90577 | 31837 ft | 516 kts | 241° |
| 2026-04-27 11:59 | 14.52869 | 52.84158 | 31833 ft | 517 kts | 240° |
| 2026-04-27 11:59 | 14.49229 | 52.77751 | 31836 ft | 518 kts | 240° |
| 2026-04-27 12:00 | 14.45577 | 52.71346 | 31829 ft | 518 kts | 240° |
| 2026-04-27 12:00 | 14.41925 | 52.64941 | 31834 ft | 518 kts | 240° |
| 2026-04-27 12:01 | 14.38276 | 52.58541 | 31834 ft | 517 kts | 240° |
| 2026-04-27 12:01 | 14.34628 | 52.52147 | 31829 ft | 517 kts | 240° |
| 2026-04-27 12:02 | 14.30983 | 52.45765 | 31830 ft | 516 kts | 240° |
| 2026-04-27 12:02 | 14.27339 | 52.39388 | 31831 ft | 516 kts | 240° |
| 2026-04-27 12:03 | 14.23720 | 52.33061 | 31830 ft | 516 kts | 240° |
| 2026-04-27 12:03 | 14.20078 | 52.26697 | 31832 ft | 515 kts | 240° |
| 2026-04-27 12:04 | 14.16410 | 52.20294 | 31830 ft | 516 kts | 240° |
| 2026-04-27 12:04 | 14.12785 | 52.13971 | 31827 ft | 516 kts | 240° |
| 2026-04-27 12:05 | 14.09130 | 52.07601 | 31829 ft | 516 kts | 240° |
| 2026-04-27 12:05 | 14.05473 | 52.01233 | 31830 ft | 517 kts | 240° |
| 2026-04-27 12:06 | 14.01815 | 51.94866 | 31831 ft | 517 kts | 240° |
| 2026-04-27 12:06 | 13.98152 | 51.88496 | 31830 ft | 517 kts | 240° |
| 2026-04-27 12:07 | 13.94485 | 51.82123 | 31833 ft | 517 kts | 240° |
| 2026-04-27 12:07 | 13.90815 | 51.75751 | 31831 ft | 517 kts | 240° |
| 2026-04-27 12:08 | 13.87149 | 51.69391 | 31828 ft | 517 kts | 240° |
| 2026-04-27 12:08 | 13.83480 | 51.63029 | 31830 ft | 517 kts | 240° |
| 2026-04-27 12:09 | 13.79812 | 51.56674 | 31828 ft | 517 kts | 240° |
| 2026-04-27 12:09 | 13.76140 | 51.50314 | 31827 ft | 517 kts | 240° |
| 2026-04-27 12:10 | 13.72484 | 51.43950 | 31826 ft | 517 kts | 241° |
| 2026-04-27 12:10 | 13.68891 | 51.37543 | 31828 ft | 517 kts | 241° |
| 2026-04-27 12:11 | 13.65306 | 51.31125 | 31832 ft | 518 kts | 241° |
| 2026-04-27 12:11 | 13.61706 | 51.24706 | 31831 ft | 518 kts | 241° |
| 2026-04-27 12:12 | 13.58101 | 51.18298 | 31831 ft | 518 kts | 241° |
| 2026-04-27 12:12 | 13.54495 | 51.11894 | 31831 ft | 518 kts | 241° |
| 2026-04-27 12:13 | 13.50886 | 51.05489 | 31826 ft | 518 kts | 241° |
| 2026-04-27 12:13 | 13.47303 | 50.99134 | 31829 ft | 517 kts | 241° |
| 2026-04-27 12:14 | 13.43670 | 50.92694 | 31829 ft | 517 kts | 241° |
| 2026-04-27 12:14 | 13.40086 | 50.86345 | 31825 ft | 517 kts | 241° |
| 2026-04-27 12:15 | 13.36474 | 50.79954 | 31830 ft | 517 kts | 241° |
| 2026-04-27 12:15 | 13.32861 | 50.73563 | 31828 ft | 518 kts | 241° |
| 2026-04-27 12:16 | 13.29243 | 50.67168 | 31824 ft | 518 kts | 241° |
| 2026-04-27 12:16 | 13.25623 | 50.60775 | 31827 ft | 518 kts | 241° |
| 2026-04-27 12:17 | 13.21998 | 50.54376 | 31825 ft | 519 kts | 241° |
| 2026-04-27 12:17 | 13.18367 | 50.47980 | 31826 ft | 519 kts | 241° |
| 2026-04-27 12:18 | 13.14721 | 50.41594 | 31820 ft | 519 kts | 240° |
| 2026-04-27 12:18 | 13.11072 | 50.35209 | 31825 ft | 518 kts | 240° |
| 2026-04-27 12:19 | 13.07452 | 50.28873 | 31823 ft | 518 kts | 240° |
| 2026-04-27 12:19 | 13.03808 | 50.22497 | 31821 ft | 518 kts | 240° |
| 2026-04-27 12:20 | 13.00163 | 50.16121 | 31819 ft | 518 kts | 240° |
| 2026-04-27 12:20 | 12.96517 | 50.09750 | 31824 ft | 518 kts | 240° |
| 2026-04-27 12:21 | 12.92868 | 50.03379 | 31820 ft | 518 kts | 240° |
| 2026-04-27 12:21 | 12.89216 | 49.97007 | 31823 ft | 518 kts | 240° |
| 2026-04-27 12:22 | 12.85562 | 49.90636 | 31817 ft | 519 kts | 240° |
| 2026-04-27 12:22 | 12.81902 | 49.84259 | 31819 ft | 519 kts | 240° |
| 2026-04-27 12:23 | 12.78244 | 49.77890 | 31818 ft | 519 kts | 240° |
| 2026-04-27 12:23 | 12.74583 | 49.71520 | 31813 ft | 519 kts | 240° |
| 2026-04-27 12:24 | 12.70921 | 49.65154 | 31817 ft | 518 kts | 240° |
| 2026-04-27 12:24 | 12.67259 | 49.58791 | 31816 ft | 518 kts | 240° |
| 2026-04-27 12:25 | 12.63599 | 49.52436 | 31812 ft | 518 kts | 240° |
| 2026-04-27 12:25 | 12.59964 | 49.46130 | 31817 ft | 518 kts | 240° |
| 2026-04-27 12:26 | 12.56307 | 49.39788 | 31818 ft | 517 kts | 240° |
| 2026-04-27 12:26 | 12.52644 | 49.33441 | 31812 ft | 518 kts | 240° |
| 2026-04-27 12:27 | 12.48983 | 49.27103 | 31814 ft | 517 kts | 240° |
| 2026-04-27 12:27 | 12.45318 | 49.20762 | 31815 ft | 518 kts | 240° |
| 2026-04-27 12:28 | 12.41652 | 49.14423 | 31811 ft | 518 kts | 240° |
| 2026-04-27 12:28 | 12.37985 | 49.08087 | 31812 ft | 518 kts | 240° |
| 2026-04-27 12:29 | 12.34316 | 49.01751 | 31811 ft | 517 kts | 240° |
| 2026-04-27 12:29 | 12.30647 | 48.95420 | 31811 ft | 517 kts | 240° |
| 2026-04-27 12:30 | 12.26977 | 48.89091 | 31810 ft | 517 kts | 240° |
| 2026-04-27 12:30 | 12.23307 | 48.82767 | 31815 ft | 517 kts | 240° |
| 2026-04-27 12:31 | 12.19635 | 48.76443 | 31811 ft | 517 kts | 240° |
| 2026-04-27 12:31 | 12.15962 | 48.70121 | 31808 ft | 517 kts | 240° |
| 2026-04-27 12:32 | 12.12286 | 48.63797 | 31809 ft | 517 kts | 240° |
| 2026-04-27 12:32 | 12.08609 | 48.57476 | 31811 ft | 517 kts | 240° |
| 2026-04-27 12:33 | 12.04936 | 48.51165 | 31805 ft | 517 kts | 240° |
| 2026-04-27 12:33 | 12.01307 | 48.44826 | 31808 ft | 517 kts | 241° |
| 2026-04-27 12:34 | 11.97720 | 48.38462 | 31809 ft | 517 kts | 241° |
| 2026-04-27 12:34 | 11.94131 | 48.32106 | 31808 ft | 517 kts | 241° |
| 2026-04-27 12:35 | 11.90556 | 48.25796 | 31807 ft | 517 kts | 241° |
| 2026-04-27 12:35 | 11.86952 | 48.19448 | 31807 ft | 516 kts | 241° |
| 2026-04-27 12:36 | 11.83348 | 48.13105 | 31809 ft | 516 kts | 241° |
| 2026-04-27 12:36 | 11.79744 | 48.06764 | 31809 ft | 516 kts | 240° |
| 2026-04-27 12:37 | 11.76140 | 48.00426 | 31803 ft | 516 kts | 241° |
| 2026-04-27 12:37 | 11.72535 | 47.94091 | 31805 ft | 516 kts | 240° |
| 2026-04-27 12:38 | 11.68924 | 47.87749 | 31806 ft | 516 kts | 240° |
| 2026-04-27 12:38 | 11.65315 | 47.81416 | 31813 ft | 517 kts | 240° |
| 2026-04-27 12:39 | 11.61702 | 47.75077 | 31810 ft | 517 kts | 240° |
| 2026-04-27 12:39 | 11.58090 | 47.68747 | 31811 ft | 517 kts | 240° |
| 2026-04-27 12:40 | 11.54473 | 47.62410 | 31806 ft | 517 kts | 240° |
| 2026-04-27 12:40 | 11.50854 | 47.56075 | 31804 ft | 517 kts | 240° |
| 2026-04-27 12:41 | 11.47262 | 47.49790 | 31807 ft | 516 kts | 240° |
| 2026-04-27 12:41 | 11.43646 | 47.43467 | 31804 ft | 516 kts | 240° |
| 2026-04-27 12:42 | 11.40028 | 47.37142 | 31805 ft | 516 kts | 240° |
| 2026-04-27 12:42 | 11.36412 | 47.30826 | 31807 ft | 516 kts | 240° |
| 2026-04-27 12:43 | 11.32792 | 47.24506 | 31807 ft | 516 kts | 240° |
| 2026-04-27 12:43 | 11.29173 | 47.18187 | 31800 ft | 516 kts | 240° |
| 2026-04-27 12:44 | 11.25555 | 47.11870 | 31805 ft | 516 kts | 240° |
| 2026-04-27 12:44 | 11.22548 | 47.06623 | 31810 ft | 516 kts | 240° |
| 2026-04-27 12:45 | 11.18926 | 47.00306 | 31806 ft | 516 kts | 240° |
| 2026-04-27 12:45 | 11.15305 | 46.93996 | 31796 ft | 516 kts | 240° |
| 2026-04-27 12:46 | 11.11681 | 46.87683 | 31809 ft | 516 kts | 240° |
| 2026-04-27 12:46 | 11.08054 | 46.81369 | 31805 ft | 516 kts | 240° |
| 2026-04-27 12:47 | 11.04427 | 46.75060 | 31802 ft | 517 kts | 240° |
| 2026-04-27 12:47 | 11.00797 | 46.68749 | 31801 ft | 517 kts | 240° |
| 2026-04-27 12:48 | 10.97167 | 46.62441 | 31805 ft | 517 kts | 240° |
| 2026-04-27 12:48 | 10.93533 | 46.56131 | 31794 ft | 517 kts | 240° |
| 2026-04-27 12:49 | 10.89897 | 46.49819 | 31796 ft | 517 kts | 240° |
| 2026-04-27 12:49 | 10.86260 | 46.43509 | 31798 ft | 517 kts | 240° |
| 2026-04-27 12:50 | 10.82619 | 46.37196 | 31802 ft | 517 kts | 240° |
| 2026-04-27 12:50 | 10.78988 | 46.30894 | 31806 ft | 517 kts | 240° |
| 2026-04-27 12:51 | 10.75396 | 46.24562 | 31809 ft | 516 kts | 241° |
| 2026-04-27 12:51 | 10.71844 | 46.18268 | 31808 ft | 516 kts | 241° |
| 2026-04-27 12:52 | 10.68244 | 46.11902 | 31809 ft | 516 kts | 241° |
| 2026-04-27 12:52 | 10.64661 | 46.05580 | 31811 ft | 516 kts | 241° |
| 2026-04-27 12:53 | 10.59313 | 45.96157 | 31814 ft | 515 kts | 241° |
| 2026-04-27 12:53 | 10.55730 | 45.89848 | 31808 ft | 515 kts | 240° |
| 2026-04-27 12:54 | 10.52145 | 45.83536 | 31805 ft | 516 kts | 240° |
| 2026-04-27 12:54 | 10.48555 | 45.77222 | 31802 ft | 516 kts | 240° |
| 2026-04-27 12:55 | 10.44958 | 45.70900 | 31801 ft | 517 kts | 240° |
| 2026-04-27 12:55 | 10.41358 | 45.64572 | 31798 ft | 518 kts | 241° |
| 2026-04-27 12:56 | 10.37753 | 45.58243 | 31802 ft | 518 kts | 240° |
| 2026-04-27 12:56 | 10.34143 | 45.51908 | 31808 ft | 518 kts | 240° |
| 2026-04-27 12:57 | 10.30559 | 45.45622 | 31810 ft | 518 kts | 241° |
| 2026-04-27 12:57 | 10.26953 | 45.39299 | 31806 ft | 518 kts | 240° |
| 2026-04-27 12:58 | 10.23345 | 45.32979 | 31815 ft | 517 kts | 240° |
| 2026-04-27 12:58 | 10.19744 | 45.26674 | 31838 ft | 516 kts | 240° |
| 2026-04-27 12:59 | 10.16149 | 45.20381 | 31834 ft | 515 kts | 240° |
| 2026-04-27 12:59 | 10.12551 | 45.14089 | 31841 ft | 515 kts | 241° |
| 2026-04-27 13:00 | 10.08954 | 45.07801 | 31839 ft | 515 kts | 241° |
| 2026-04-27 13:00 | 10.05353 | 45.01510 | 31869 ft | 516 kts | 241° |
| 2026-04-27 13:01 | 10.01748 | 44.95214 | 31858 ft | 516 kts | 241° |
| 2026-04-27 13:01 | 9.98139 | 44.88914 | 31854 ft | 516 kts | 241° |
| 2026-04-27 13:02 | 9.94529 | 44.82619 | 31861 ft | 516 kts | 241° |
| 2026-04-27 13:02 | 9.90920 | 44.76328 | 31863 ft | 516 kts | 241° |
| 2026-04-27 13:03 | 9.87308 | 44.70034 | 31858 ft | 516 kts | 241° |
| 2026-04-27 13:03 | 9.83696 | 44.63745 | 31857 ft | 516 kts | 241° |
| 2026-04-27 13:04 | 9.80090 | 44.57468 | 31854 ft | 515 kts | 241° |
| 2026-04-27 13:04 | 9.76478 | 44.51185 | 31852 ft | 515 kts | 241° |
| 2026-04-27 13:05 | 9.72867 | 44.44906 | 31852 ft | 516 kts | 241° |
| 2026-04-27 13:05 | 9.69254 | 44.38626 | 31850 ft | 516 kts | 240° |
| 2026-04-27 13:06 | 9.65658 | 44.32381 | 31850 ft | 517 kts | 240° |
| 2026-04-27 13:06 | 9.62027 | 44.26076 | 31842 ft | 519 kts | 241° |
| 2026-04-27 13:07 | 9.58391 | 44.19767 | 31846 ft | 519 kts | 241° |
| 2026-04-27 13:07 | 9.54753 | 44.13456 | 31842 ft | 518 kts | 241° |
| 2026-04-27 13:08 | 9.50906 | 44.07297 | 31834 ft | 518 kts | 233° |
| 2026-04-27 13:08 | 9.46359 | 44.01654 | 31828 ft | 516 kts | 231° |
| 2026-04-27 13:09 | 9.41800 | 43.96046 | 31838 ft | 515 kts | 231° |
| 2026-04-27 13:09 | 9.37286 | 43.90414 | 31835 ft | 515 kts | 232° |
| 2026-04-27 13:10 | 9.32788 | 43.84774 | 31836 ft | 515 kts | 232° |
| 2026-04-27 13:10 | 9.28287 | 43.79138 | 31843 ft | 515 kts | 232° |
| 2026-04-27 13:11 | 9.23776 | 43.73506 | 31841 ft | 515 kts | 231° |
| 2026-04-27 13:11 | 9.19233 | 43.67905 | 31837 ft | 515 kts | 231° |
| 2026-04-27 13:12 | 9.14681 | 43.62310 | 31840 ft | 515 kts | 231° |
| 2026-04-27 13:12 | 9.10139 | 43.56721 | 31841 ft | 514 kts | 231° |
| 2026-04-27 13:13 | 9.05596 | 43.51127 | 31844 ft | 514 kts | 231° |
| 2026-04-27 13:13 | 9.01060 | 43.45540 | 31844 ft | 514 kts | 231° |
| 2026-04-27 13:14 | 8.96524 | 43.39957 | 31848 ft | 513 kts | 231° |
| 2026-04-27 13:14 | 8.91987 | 43.34376 | 31843 ft | 513 kts | 231° |
| 2026-04-27 13:15 | 8.87455 | 43.28803 | 31843 ft | 513 kts | 231° |
| 2026-04-27 13:15 | 8.82926 | 43.23237 | 31836 ft | 513 kts | 231° |
| 2026-04-27 13:16 | 8.78397 | 43.17672 | 31836 ft | 513 kts | 231° |
| 2026-04-27 13:16 | 8.73895 | 43.12143 | 31830 ft | 512 kts | 231° |
| 2026-04-27 13:17 | 8.69365 | 43.06583 | 31829 ft | 512 kts | 231° |
| 2026-04-27 13:17 | 8.64835 | 43.01023 | 31832 ft | 512 kts | 231° |
| 2026-04-27 13:18 | 8.60307 | 42.95470 | 31829 ft | 512 kts | 231° |
| 2026-04-27 13:18 | 8.55773 | 42.89911 | 31826 ft | 512 kts | 231° |
| 2026-04-27 13:19 | 8.51242 | 42.84359 | 31825 ft | 512 kts | 231° |
| 2026-04-27 13:19 | 8.46709 | 42.78806 | 31827 ft | 512 kts | 231° |
| 2026-04-27 13:20 | 8.42174 | 42.73251 | 31821 ft | 513 kts | 231° |
| 2026-04-27 13:20 | 8.37633 | 42.67693 | 31828 ft | 513 kts | 231° |
| 2026-04-27 13:21 | 8.33094 | 42.62138 | 31826 ft | 513 kts | 231° |
| 2026-04-27 13:21 | 8.28549 | 42.56578 | 31831 ft | 513 kts | 231° |
| 2026-04-27 13:22 | 8.24007 | 42.51024 | 31832 ft | 513 kts | 231° |
| 2026-04-27 13:22 | 8.19449 | 42.45456 | 31932 ft | 516 kts | 231° |
| 2026-04-27 13:23 | 8.17165 | 42.42668 | 32253 ft | 514 kts | 231° |
| 2026-04-27 13:23 | 8.14894 | 42.39897 | 32703 ft | 511 kts | 231° |
| 2026-04-27 13:23 | 8.12639 | 42.37144 | 33172 ft | 506 kts | 231° |
| 2026-04-27 13:23 | 8.10436 | 42.34456 | 33620 ft | 503 kts | 231° |
| 2026-04-27 13:24 | 8.08208 | 42.31736 | 33874 ft | 504 kts | 231° |
| 2026-04-27 13:24 | 8.05961 | 42.28994 | 33812 ft | 507 kts | 231° |
| 2026-04-27 13:24 | 8.01492 | 42.23541 | 33827 ft | 501 kts | 231° |
| 2026-04-27 13:25 | 7.97062 | 42.18137 | 33827 ft | 499 kts | 231° |
| 2026-04-27 13:25 | 7.92641 | 42.12747 | 33832 ft | 498 kts | 231° |
| 2026-04-27 13:26 | 7.88218 | 42.07356 | 33833 ft | 499 kts | 231° |
| 2026-04-27 13:26 | 7.83793 | 42.01964 | 33833 ft | 500 kts | 231° |
| 2026-04-27 13:27 | 7.79353 | 41.96557 | 33835 ft | 501 kts | 231° |
| 2026-04-27 13:27 | 7.74906 | 41.91140 | 33836 ft | 502 kts | 231° |
| 2026-04-27 13:28 | 7.70451 | 41.85718 | 33840 ft | 502 kts | 231° |
| 2026-04-27 13:28 | 7.65983 | 41.80296 | 33836 ft | 503 kts | 231° |
| 2026-04-27 13:29 | 7.61500 | 41.74873 | 33834 ft | 504 kts | 231° |
| 2026-04-27 13:29 | 7.57046 | 41.69484 | 33837 ft | 504 kts | 231° |
| 2026-04-27 13:30 | 7.52564 | 41.64059 | 33839 ft | 504 kts | 231° |
| 2026-04-27 13:30 | 7.48082 | 41.58635 | 33846 ft | 503 kts | 231° |
| 2026-04-27 13:31 | 7.43603 | 41.53216 | 33836 ft | 503 kts | 231° |
| 2026-04-27 13:31 | 7.39122 | 41.47798 | 33842 ft | 503 kts | 231° |
| 2026-04-27 13:32 | 7.34637 | 41.42374 | 33856 ft | 504 kts | 231° |
| 2026-04-27 13:32 | 7.30141 | 41.36940 | 33849 ft | 505 kts | 231° |
| 2026-04-27 13:33 | 7.25643 | 41.31505 | 33853 ft | 506 kts | 231° |
| 2026-04-27 13:33 | 7.21166 | 41.26037 | 33862 ft | 506 kts | 232° |
| 2026-04-27 13:34 | 7.16742 | 41.20511 | 33861 ft | 507 kts | 232° |
| 2026-04-27 13:34 | 7.13067 | 41.15913 | 33875 ft | 507 kts | 231° |
| 2026-04-27 13:35 | 7.08635 | 41.10386 | 33863 ft | 508 kts | 231° |
| 2026-04-27 13:35 | 7.04195 | 41.04863 | 33874 ft | 508 kts | 232° |
| 2026-04-27 13:36 | 6.99752 | 40.99339 | 33881 ft | 507 kts | 231° |
| 2026-04-27 13:36 | 6.95314 | 40.93823 | 33903 ft | 507 kts | 231° |
| 2026-04-27 13:37 | 6.90873 | 40.88305 | 33892 ft | 507 kts | 231° |
| 2026-04-27 13:37 | 6.86431 | 40.82786 | 33886 ft | 508 kts | 231° |
| 2026-04-27 13:38 | 6.81978 | 40.77257 | 33881 ft | 509 kts | 231° |
| 2026-04-27 13:38 | 6.77520 | 40.71723 | 33884 ft | 509 kts | 231° |
| 2026-04-27 13:39 | 6.73066 | 40.66196 | 33908 ft | 508 kts | 231° |
| 2026-04-27 13:39 | 6.68610 | 40.60667 | 33897 ft | 508 kts | 231° |
| 2026-04-27 13:40 | 6.64163 | 40.55152 | 33876 ft | 508 kts | 231° |
| 2026-04-27 13:40 | 6.59706 | 40.49625 | 33875 ft | 509 kts | 231° |
| 2026-04-27 13:41 | 6.55248 | 40.44100 | 33860 ft | 508 kts | 231° |
| 2026-04-27 13:41 | 6.50798 | 40.38585 | 33884 ft | 507 kts | 231° |
| 2026-04-27 13:42 | 6.46347 | 40.33072 | 33871 ft | 507 kts | 231° |
| 2026-04-27 13:42 | 6.41902 | 40.27568 | 33851 ft | 507 kts | 231° |
| 2026-04-27 13:43 | 6.37455 | 40.22062 | 33845 ft | 507 kts | 231° |
| 2026-04-27 13:43 | 6.33008 | 40.16558 | 33846 ft | 507 kts | 231° |
| 2026-04-27 13:44 | 6.28561 | 40.11054 | 33855 ft | 507 kts | 231° |
| 2026-04-27 13:44 | 6.24141 | 40.05585 | 33845 ft | 507 kts | 231° |
| 2026-04-27 13:45 | 6.19503 | 40.00238 | 33844 ft | 507 kts | 227° |
| 2026-04-27 13:45 | 6.14685 | 39.95071 | 33840 ft | 506 kts | 227° |
| 2026-04-27 13:46 | 6.09880 | 39.89912 | 33852 ft | 506 kts | 227° |
| 2026-04-27 13:46 | 6.05096 | 39.84735 | 33879 ft | 505 kts | 227° |
| 2026-04-27 13:47 | 6.00316 | 39.79552 | 33860 ft | 505 kts | 227° |
| 2026-04-27 13:47 | 5.95536 | 39.74373 | 33865 ft | 506 kts | 227° |
| 2026-04-27 13:48 | 5.90750 | 39.69191 | 33858 ft | 506 kts | 227° |
| 2026-04-27 13:48 | 5.86111 | 39.63877 | 33870 ft | 506 kts | 231° |
| 2026-04-27 13:49 | 5.81646 | 39.58414 | 33892 ft | 506 kts | 231° |
| 2026-04-27 13:49 | 5.77143 | 39.52959 | 33882 ft | 508 kts | 230° |
| 2026-04-27 13:50 | 5.72599 | 39.47525 | 33905 ft | 508 kts | 230° |
| 2026-04-27 13:50 | 5.68045 | 39.42086 | 33885 ft | 509 kts | 230° |
| 2026-04-27 13:51 | 5.63498 | 39.36652 | 33897 ft | 508 kts | 230° |
| 2026-04-27 13:51 | 5.58953 | 39.31227 | 33897 ft | 508 kts | 230° |
| 2026-04-27 13:52 | 5.54404 | 39.25799 | 33922 ft | 508 kts | 230° |
| 2026-04-27 13:52 | 5.49849 | 39.20360 | 33924 ft | 509 kts | 230° |
| 2026-04-27 13:53 | 5.43009 | 39.12196 | 33911 ft | 509 kts | 230° |
| 2026-04-27 13:54 | 5.38448 | 39.06754 | 33907 ft | 509 kts | 230° |
| 2026-04-27 13:54 | 5.33896 | 39.01324 | 33908 ft | 508 kts | 230° |
| 2026-04-27 13:55 | 5.29380 | 38.95938 | 33873 ft | 508 kts | 230° |
| 2026-04-27 13:55 | 5.24829 | 38.90513 | 33879 ft | 508 kts | 230° |
| 2026-04-27 13:56 | 5.20271 | 38.85080 | 33899 ft | 509 kts | 230° |
| 2026-04-27 13:56 | 5.15712 | 38.79647 | 33884 ft | 509 kts | 230° |
| 2026-04-27 13:57 | 5.11154 | 38.74216 | 33886 ft | 509 kts | 230° |
| 2026-04-27 13:57 | 5.06596 | 38.68787 | 33886 ft | 509 kts | 230° |
| 2026-04-27 13:58 | 5.02037 | 38.63359 | 33900 ft | 509 kts | 230° |
| 2026-04-27 13:58 | 4.97478 | 38.57932 | 33901 ft | 509 kts | 230° |
| 2026-04-27 13:59 | 4.92913 | 38.52499 | 33900 ft | 509 kts | 230° |
| 2026-04-27 13:59 | 4.88350 | 38.47068 | 33900 ft | 509 kts | 230° |
| 2026-04-27 14:00 | 4.83785 | 38.41637 | 33903 ft | 509 kts | 230° |
| 2026-04-27 14:00 | 4.79217 | 38.36204 | 33923 ft | 510 kts | 230° |
| 2026-04-27 14:01 | 4.74644 | 38.30766 | 33924 ft | 510 kts | 230° |
| 2026-04-27 14:01 | 4.70066 | 38.25323 | 33912 ft | 511 kts | 229° |
| 2026-04-27 14:02 | 4.65488 | 38.19882 | 33921 ft | 510 kts | 229° |
| 2026-04-27 14:02 | 4.60912 | 38.14443 | 33918 ft | 510 kts | 229° |
| 2026-04-27 14:03 | 4.56334 | 38.09005 | 33915 ft | 510 kts | 229° |
| 2026-04-27 14:03 | 4.51787 | 38.03603 | 33917 ft | 510 kts | 229° |
| 2026-04-27 14:04 | 4.47212 | 37.98169 | 33915 ft | 510 kts | 229° |
| 2026-04-27 14:04 | 4.42631 | 37.92730 | 33915 ft | 510 kts | 229° |
| 2026-04-27 14:05 | 4.38051 | 37.87293 | 33905 ft | 511 kts | 229° |
| 2026-04-27 14:05 | 4.33464 | 37.81849 | 33922 ft | 511 kts | 229° |
| 2026-04-27 14:06 | 4.28873 | 37.76401 | 33917 ft | 512 kts | 229° |
| 2026-04-27 14:06 | 4.24279 | 37.70950 | 33894 ft | 512 kts | 229° |
| 2026-04-27 14:07 | 4.19680 | 37.65495 | 33899 ft | 512 kts | 229° |
| 2026-04-27 14:07 | 4.15081 | 37.60041 | 33874 ft | 512 kts | 229° |
| 2026-04-27 14:08 | 4.10484 | 37.54588 | 33870 ft | 512 kts | 229° |
| 2026-04-27 14:08 | 4.05888 | 37.49138 | 33868 ft | 512 kts | 229° |
| 2026-04-27 14:09 | 4.01326 | 37.43669 | 33864 ft | 512 kts | 232° |
| 2026-04-27 14:09 | 3.97527 | 37.37651 | 33852 ft | 512 kts | 243° |
| 2026-04-27 14:10 | 3.94434 | 37.31238 | 33848 ft | 512 kts | 244° |
| 2026-04-27 14:10 | 3.91341 | 37.24825 | 33870 ft | 511 kts | 244° |
| 2026-04-27 14:11 | 3.88214 | 37.18423 | 33845 ft | 512 kts | 243° |
| 2026-04-27 14:11 | 3.85070 | 37.12027 | 33849 ft | 512 kts | 243° |
| 2026-04-27 14:12 | 3.81921 | 37.05629 | 33844 ft | 512 kts | 243° |
| 2026-04-27 14:12 | 3.78791 | 36.99267 | 33843 ft | 513 kts | 243° |
| 2026-04-27 14:13 | 3.75638 | 36.92855 | 33860 ft | 513 kts | 243° |
| 2026-04-27 14:13 | 3.72481 | 36.86438 | 33842 ft | 514 kts | 243° |
| 2026-04-27 14:14 | 3.69322 | 36.80017 | 33850 ft | 514 kts | 243° |
| 2026-04-27 14:14 | 3.66161 | 36.73595 | 33852 ft | 514 kts | 243° |
| 2026-04-27 14:15 | 3.62999 | 36.67170 | 33853 ft | 515 kts | 243° |
| 2026-04-27 14:15 | 3.59832 | 36.60738 | 33852 ft | 515 kts | 243° |
| 2026-04-27 14:16 | 3.56666 | 36.54308 | 33849 ft | 515 kts | 243° |
| 2026-04-27 14:16 | 3.53497 | 36.47874 | 33851 ft | 515 kts | 243° |
| 2026-04-27 14:17 | 3.50333 | 36.41451 | 33844 ft | 515 kts | 243° |
| 2026-04-27 14:17 | 3.47166 | 36.35025 | 33845 ft | 515 kts | 243° |
| 2026-04-27 14:18 | 3.44001 | 36.28603 | 33837 ft | 514 kts | 243° |
| 2026-04-27 14:18 | 3.40834 | 36.22179 | 33837 ft | 514 kts | 243° |
| 2026-04-27 14:19 | 3.37692 | 36.15806 | 33843 ft | 514 kts | 243° |
| 2026-04-27 14:19 | 3.34525 | 36.09384 | 33836 ft | 514 kts | 243° |
| 2026-04-27 14:20 | 3.31360 | 36.02965 | 33833 ft | 514 kts | 243° |
| 2026-04-27 14:20 | 3.28195 | 35.96550 | 33834 ft | 514 kts | 243° |
| 2026-04-27 14:21 | 3.25031 | 35.90136 | 33836 ft | 514 kts | 243° |
| 2026-04-27 14:21 | 3.21864 | 35.83719 | 33839 ft | 514 kts | 243° |
| 2026-04-27 14:22 | 3.18699 | 35.77305 | 33833 ft | 514 kts | 243° |
| 2026-04-27 14:22 | 3.15533 | 35.70889 | 33858 ft | 514 kts | 243° |
| 2026-04-27 14:23 | 3.12877 | 35.65568 | 33843 ft | 514 kts | 240° |
| 2026-04-27 14:23 | 3.08870 | 35.59668 | 33816 ft | 513 kts | 230° |
| 2026-04-27 14:24 | 3.03948 | 35.54530 | 33818 ft | 511 kts | 223° |
| 2026-04-27 14:24 | 2.98788 | 35.49635 | 33821 ft | 511 kts | 222° |
| 2026-04-27 14:25 | 2.93640 | 35.44713 | 33832 ft | 512 kts | 223° |
| 2026-04-27 14:25 | 2.88516 | 35.39767 | 33868 ft | 512 kts | 223° |
| 2026-04-27 14:26 | 2.83396 | 35.34811 | 33863 ft | 513 kts | 223° |
| 2026-04-27 14:26 | 2.78265 | 35.29846 | 33868 ft | 513 kts | 223° |
| 2026-04-27 14:27 | 2.73139 | 35.24891 | 33873 ft | 513 kts | 223° |
| 2026-04-27 14:27 | 2.68012 | 35.19935 | 33879 ft | 513 kts | 223° |
| 2026-04-27 14:28 | 2.62885 | 35.14980 | 33880 ft | 512 kts | 223° |
| 2026-04-27 14:28 | 2.57757 | 35.10024 | 33890 ft | 512 kts | 223° |
| 2026-04-27 14:29 | 2.52634 | 35.05071 | 33893 ft | 512 kts | 223° |
| 2026-04-27 14:29 | 2.47606 | 35.00028 | 33904 ft | 512 kts | 231° |
| 2026-04-27 14:29 | 2.45640 | 34.97070 | 33948 ft | 512 kts | 242° |
| 2026-04-27 14:30 | 2.44186 | 34.93822 | 33925 ft | 513 kts | 251° |
| 2026-04-27 14:30 | 2.42677 | 34.86862 | 33923 ft | 514 kts | 261° |
| 2026-04-27 14:31 | 2.41491 | 34.79809 | 33936 ft | 515 kts | 260° |
| 2026-04-27 14:31 | 2.40253 | 34.72802 | 33950 ft | 516 kts | 260° |
| 2026-04-27 14:32 | 2.38957 | 34.65735 | 33929 ft | 517 kts | 259° |
| 2026-04-27 14:32 | 2.37648 | 34.58668 | 33930 ft | 517 kts | 259° |
| 2026-04-27 14:33 | 2.36342 | 34.51598 | 33921 ft | 517 kts | 259° |
| 2026-04-27 14:33 | 2.35039 | 34.44535 | 33934 ft | 516 kts | 259° |
| 2026-04-27 14:34 | 2.33739 | 34.37483 | 33918 ft | 515 kts | 259° |
| 2026-04-27 14:34 | 2.32443 | 34.30452 | 33920 ft | 514 kts | 259° |
| 2026-04-27 14:35 | 2.31148 | 34.23437 | 33911 ft | 512 kts | 259° |
| 2026-04-27 14:35 | 2.29858 | 34.16440 | 33919 ft | 511 kts | 259° |
| 2026-04-27 14:36 | 2.28568 | 34.09457 | 33909 ft | 510 kts | 259° |
| 2026-04-27 14:36 | 2.27280 | 34.02481 | 33916 ft | 510 kts | 259° |
| 2026-04-27 14:37 | 2.25994 | 33.95512 | 33915 ft | 510 kts | 259° |
| 2026-04-27 14:37 | 2.24705 | 33.88531 | 33911 ft | 511 kts | 259° |
| 2026-04-27 14:38 | 2.23408 | 33.81529 | 33921 ft | 513 kts | 259° |
| 2026-04-27 14:38 | 2.22106 | 33.74500 | 33922 ft | 515 kts | 259° |
| 2026-04-27 14:39 | 2.20799 | 33.67441 | 33921 ft | 517 kts | 259° |
| 2026-04-27 14:39 | 2.19488 | 33.60357 | 33923 ft | 519 kts | 259° |
| 2026-04-27 14:40 | 2.18174 | 33.53262 | 33918 ft | 520 kts | 259° |
| 2026-04-27 14:40 | 2.16857 | 33.46149 | 33921 ft | 520 kts | 259° |
| 2026-04-27 14:41 | 2.15539 | 33.39034 | 33919 ft | 520 kts | 259° |
| 2026-04-27 14:41 | 2.14231 | 33.31975 | 33922 ft | 520 kts | 259° |
| 2026-04-27 14:42 | 2.12914 | 33.24874 | 33913 ft | 519 kts | 259° |
| 2026-04-27 14:42 | 2.11600 | 33.17783 | 33919 ft | 518 kts | 259° |
| 2026-04-27 14:43 | 2.10287 | 33.10700 | 33958 ft | 519 kts | 259° |
| 2026-04-27 14:43 | 2.08969 | 33.03594 | 33919 ft | 518 kts | 259° |
| 2026-04-27 14:44 | 2.07656 | 32.96524 | 33913 ft | 516 kts | 259° |
| 2026-04-27 14:44 | 2.06350 | 32.89486 | 33925 ft | 514 kts | 259° |
| 2026-04-27 14:45 | 2.05046 | 32.82462 | 33926 ft | 514 kts | 259° |
| 2026-04-27 14:45 | 2.03743 | 32.75442 | 33918 ft | 512 kts | 259° |
| 2026-04-27 14:46 | 2.02445 | 32.68455 | 33917 ft | 511 kts | 259° |
| 2026-04-27 14:46 | 2.01149 | 32.61478 | 33917 ft | 510 kts | 259° |
| 2026-04-27 14:47 | 1.99861 | 32.54546 | 33930 ft | 511 kts | 259° |
| 2026-04-27 14:47 | 1.98561 | 32.47551 | 33917 ft | 512 kts | 259° |
| 2026-04-27 14:48 | 1.97259 | 32.40547 | 33923 ft | 513 kts | 259° |
| 2026-04-27 14:48 | 1.95303 | 32.30031 | 33935 ft | 513 kts | 259° |
| 2026-04-27 14:49 | 1.93998 | 32.23013 | 33930 ft | 514 kts | 259° |
| 2026-04-27 14:49 | 1.92691 | 32.15983 | 33927 ft | 515 kts | 259° |
| 2026-04-27 14:50 | 1.91388 | 32.08952 | 33931 ft | 515 kts | 260° |
| 2026-04-27 14:50 | 1.90468 | 32.01853 | 33941 ft | 515 kts | 263° |
| 2026-04-27 14:51 | 1.89690 | 31.94732 | 33936 ft | 516 kts | 263° |
| 2026-04-27 14:51 | 1.89037 | 31.88809 | 33933 ft | 516 kts | 263° |
| 2026-04-27 14:52 | 1.88092 | 31.80488 | 33923 ft | 515 kts | 263° |
| 2026-04-27 14:52 | 1.87274 | 31.73374 | 33924 ft | 515 kts | 263° |
| 2026-04-27 14:53 | 1.86457 | 31.66268 | 33919 ft | 514 kts | 263° |
| 2026-04-27 14:53 | 1.85643 | 31.59176 | 33918 ft | 513 kts | 263° |
| 2026-04-27 14:54 | 1.84830 | 31.52091 | 33909 ft | 513 kts | 263° |
| 2026-04-27 14:54 | 1.84018 | 31.45010 | 33907 ft | 512 kts | 263° |
| 2026-04-27 14:55 | 1.83206 | 31.37942 | 33911 ft | 511 kts | 263° |
| 2026-04-27 14:55 | 1.82394 | 31.30879 | 33910 ft | 511 kts | 263° |
| 2026-04-27 14:56 | 1.81584 | 31.23826 | 33913 ft | 511 kts | 263° |
| 2026-04-27 14:56 | 1.80779 | 31.16825 | 33917 ft | 510 kts | 263° |
| 2026-04-27 14:57 | 1.79970 | 31.09784 | 33911 ft | 510 kts | 263° |
| 2026-04-27 14:57 | 1.79161 | 31.02745 | 33926 ft | 509 kts | 263° |
| 2026-04-27 14:58 | 1.77831 | 30.95812 | 33935 ft | 508 kts | 252° |
| 2026-04-27 14:58 | 1.75786 | 30.89058 | 33939 ft | 508 kts | 252° |
| 2026-04-27 14:59 | 1.73827 | 30.82274 | 33935 ft | 508 kts | 253° |
| 2026-04-27 14:59 | 1.71863 | 30.75491 | 33937 ft | 508 kts | 253° |
| 2026-04-27 15:00 | 1.69892 | 30.68703 | 33936 ft | 509 kts | 253° |
| 2026-04-27 15:00 | 1.67918 | 30.61906 | 33943 ft | 510 kts | 253° |
| 2026-04-27 15:01 | 1.65944 | 30.55102 | 33937 ft | 510 kts | 253° |
| 2026-04-27 15:01 | 1.63968 | 30.48295 | 33940 ft | 510 kts | 253° |
| 2026-04-27 15:02 | 1.61991 | 30.41482 | 33944 ft | 511 kts | 253° |
| 2026-04-27 15:02 | 1.60013 | 30.34666 | 33949 ft | 511 kts | 253° |
| 2026-04-27 15:03 | 1.58045 | 30.27882 | 33951 ft | 512 kts | 253° |
| 2026-04-27 15:03 | 1.56145 | 30.21019 | 33948 ft | 513 kts | 257° |
| 2026-04-27 15:04 | 1.54657 | 30.14047 | 33952 ft | 513 kts | 258° |
| 2026-04-27 15:04 | 1.53213 | 30.07056 | 33945 ft | 514 kts | 258° |
| 2026-04-27 15:05 | 1.51742 | 30.00061 | 33955 ft | 515 kts | 257° |
| 2026-04-27 15:05 | 1.50253 | 29.93060 | 33952 ft | 515 kts | 257° |
| 2026-04-27 15:06 | 1.48762 | 29.86067 | 33948 ft | 515 kts | 257° |
| 2026-04-27 15:06 | 1.47272 | 29.79066 | 33943 ft | 515 kts | 257° |
| 2026-04-27 15:07 | 1.45783 | 29.72069 | 33941 ft | 515 kts | 257° |
| 2026-04-27 15:07 | 1.44295 | 29.65074 | 33938 ft | 515 kts | 257° |
| 2026-04-27 15:08 | 1.42807 | 29.58080 | 33937 ft | 514 kts | 257° |
| 2026-04-27 15:08 | 1.41309 | 29.51095 | 33939 ft | 514 kts | 257° |
| 2026-04-27 15:09 | 1.39799 | 29.44108 | 33937 ft | 514 kts | 257° |
| 2026-04-27 15:09 | 1.38300 | 29.37165 | 33934 ft | 514 kts | 257° |
| 2026-04-27 15:10 | 1.36795 | 29.30180 | 33927 ft | 514 kts | 257° |
| 2026-04-27 15:10 | 1.35279 | 29.23142 | 33925 ft | 514 kts | 257° |
| 2026-04-27 15:11 | 1.33783 | 29.16199 | 33926 ft | 515 kts | 257° |
| 2026-04-27 15:11 | 1.32275 | 29.09204 | 33920 ft | 515 kts | 257° |
| 2026-04-27 15:12 | 1.31214 | 29.02140 | 33917 ft | 515 kts | 270° |
| 2026-04-27 15:12 | 1.32209 | 28.95076 | 33921 ft | 515 kts | 288° |
| 2026-04-27 15:13 | 1.34665 | 28.88374 | 33926 ft | 514 kts | 291° |
| 2026-04-27 15:13 | 1.37190 | 28.81688 | 33922 ft | 515 kts | 291° |
| 2026-04-27 15:14 | 1.39251 | 28.76105 | 33918 ft | 515 kts | 290° |
| 2026-04-27 15:14 | 1.41693 | 28.69381 | 33916 ft | 515 kts | 290° |
| 2026-04-27 15:15 | 1.44125 | 28.62655 | 33916 ft | 514 kts | 290° |
| 2026-04-27 15:15 | 1.46551 | 28.55952 | 33912 ft | 512 kts | 290° |
| 2026-04-27 15:16 | 1.48975 | 28.49261 | 33910 ft | 511 kts | 290° |
| 2026-04-27 15:16 | 1.51390 | 28.42596 | 33911 ft | 509 kts | 290° |
| 2026-04-27 15:17 | 1.53800 | 28.35947 | 33901 ft | 509 kts | 290° |
| 2026-04-27 15:17 | 1.56212 | 28.29289 | 33907 ft | 509 kts | 290° |
| 2026-04-27 15:18 | 1.58624 | 28.22628 | 33908 ft | 510 kts | 290° |
| 2026-04-27 15:18 | 1.61042 | 28.15952 | 33908 ft | 512 kts | 290° |
| 2026-04-27 15:19 | 1.63467 | 28.09257 | 33906 ft | 513 kts | 290° |
| 2026-04-27 15:19 | 1.65895 | 28.02552 | 33898 ft | 514 kts | 290° |
| 2026-04-27 15:20 | 1.68330 | 27.95827 | 33902 ft | 515 kts | 290° |
| 2026-04-27 15:20 | 1.70765 | 27.89099 | 33898 ft | 514 kts | 290° |
| 2026-04-27 15:21 | 1.73193 | 27.82392 | 33900 ft | 512 kts | 290° |
| 2026-04-27 15:21 | 1.75613 | 27.75707 | 33900 ft | 511 kts | 290° |
| 2026-04-27 15:22 | 1.78025 | 27.69042 | 33901 ft | 509 kts | 290° |
| 2026-04-27 15:22 | 1.80431 | 27.62392 | 33903 ft | 508 kts | 290° |
| 2026-04-27 15:23 | 1.82817 | 27.55795 | 33900 ft | 508 kts | 290° |
| 2026-04-27 15:23 | 1.85219 | 27.49156 | 33902 ft | 508 kts | 290° |
| 2026-04-27 15:24 | 1.87621 | 27.42513 | 33896 ft | 509 kts | 290° |
| 2026-04-27 15:24 | 1.90029 | 27.35857 | 33901 ft | 509 kts | 290° |
| 2026-04-27 15:25 | 1.92441 | 27.29192 | 33901 ft | 510 kts | 290° |
| 2026-04-27 15:25 | 1.94857 | 27.22526 | 33895 ft | 510 kts | 290° |
| 2026-04-27 15:26 | 1.97276 | 27.15852 | 33889 ft | 511 kts | 290° |
| 2026-04-27 15:26 | 1.99696 | 27.09170 | 33900 ft | 512 kts | 290° |
| 2026-04-27 15:27 | 2.02122 | 27.02472 | 33886 ft | 512 kts | 290° |
| 2026-04-27 15:27 | 2.04547 | 26.95774 | 33889 ft | 513 kts | 290° |
| 2026-04-27 15:28 | 2.06978 | 26.89058 | 33891 ft | 514 kts | 290° |
| 2026-04-27 15:28 | 2.09416 | 26.82326 | 33890 ft | 516 kts | 290° |
| 2026-04-27 15:29 | 2.11870 | 26.75573 | 33888 ft | 518 kts | 290° |
| 2026-04-27 15:29 | 2.14332 | 26.68803 | 33900 ft | 519 kts | 290° |
| 2026-04-27 15:30 | 2.16798 | 26.62022 | 33881 ft | 520 kts | 290° |
| 2026-04-27 15:30 | 2.19266 | 26.55228 | 33884 ft | 520 kts | 290° |
| 2026-04-27 15:31 | 2.21735 | 26.48429 | 33902 ft | 520 kts | 290° |
| 2026-04-27 15:31 | 2.24207 | 26.41623 | 33883 ft | 521 kts | 290° |
| 2026-04-27 15:32 | 2.26679 | 26.34816 | 33878 ft | 521 kts | 290° |
| 2026-04-27 15:32 | 2.29148 | 26.28013 | 33878 ft | 520 kts | 290° |
| 2026-04-27 15:33 | 2.31615 | 26.21218 | 33878 ft | 520 kts | 290° |
| 2026-04-27 15:33 | 2.34064 | 26.14470 | 33890 ft | 519 kts | 290° |
| 2026-04-27 15:34 | 2.36526 | 26.07687 | 33878 ft | 519 kts | 290° |
| 2026-04-27 15:34 | 2.38988 | 26.00900 | 33866 ft | 519 kts | 290° |
| 2026-04-27 15:35 | 2.41449 | 25.94117 | 33879 ft | 518 kts | 290° |
| 2026-04-27 15:35 | 2.43904 | 25.87347 | 33860 ft | 517 kts | 290° |
| 2026-04-27 15:36 | 2.46353 | 25.80593 | 33864 ft | 516 kts | 290° |
| 2026-04-27 15:36 | 2.48796 | 25.73855 | 33861 ft | 515 kts | 290° |
| 2026-04-27 15:37 | 2.51235 | 25.67128 | 33860 ft | 515 kts | 290° |
| 2026-04-27 15:37 | 2.53673 | 25.60400 | 33866 ft | 514 kts | 290° |
| 2026-04-27 15:38 | 2.56111 | 25.53673 | 33872 ft | 515 kts | 290° |
| 2026-04-27 15:38 | 2.58548 | 25.46945 | 33851 ft | 515 kts | 290° |
| 2026-04-27 15:39 | 2.60989 | 25.40206 | 33848 ft | 515 kts | 290° |
| 2026-04-27 15:39 | 2.63430 | 25.33468 | 33859 ft | 515 kts | 290° |
| 2026-04-27 15:40 | 2.65870 | 25.26729 | 33842 ft | 516 kts | 290° |
| 2026-04-27 15:40 | 2.68312 | 25.19982 | 33841 ft | 516 kts | 290° |
| 2026-04-27 15:41 | 2.70739 | 25.13276 | 33852 ft | 516 kts | 290° |
| 2026-04-27 15:41 | 2.73179 | 25.06533 | 33853 ft | 516 kts | 290° |
| 2026-04-27 15:42 | 2.75623 | 24.99781 | 33850 ft | 516 kts | 290° |
| 2026-04-27 15:42 | 2.78063 | 24.93035 | 33863 ft | 515 kts | 290° |
| 2026-04-27 15:43 | 2.80499 | 24.86298 | 33854 ft | 514 kts | 290° |
| 2026-04-27 15:43 | 2.82669 | 24.79490 | 33854 ft | 513 kts | 283° |
| 2026-04-27 15:44 | 2.84304 | 24.72556 | 33855 ft | 512 kts | 283° |
| 2026-04-27 15:44 | 2.85919 | 24.65622 | 33852 ft | 512 kts | 283° |
| 2026-04-27 15:45 | 2.87565 | 24.58690 | 33850 ft | 512 kts | 283° |
| 2026-04-27 15:45 | 2.89227 | 24.51771 | 33855 ft | 512 kts | 283° |
| 2026-04-27 15:46 | 2.90894 | 24.44844 | 33854 ft | 512 kts | 283° |
| 2026-04-27 15:46 | 2.92558 | 24.37917 | 33836 ft | 512 kts | 283° |
| 2026-04-27 15:47 | 2.94220 | 24.30992 | 33847 ft | 512 kts | 283° |
| 2026-04-27 15:47 | 2.95879 | 24.24078 | 33843 ft | 511 kts | 283° |
| 2026-04-27 15:48 | 2.97535 | 24.17172 | 33848 ft | 510 kts | 283° |
| 2026-04-27 15:49 | 3.00015 | 24.06826 | 33844 ft | 509 kts | 283° |
| 2026-04-27 15:49 | 3.01666 | 23.99935 | 33847 ft | 510 kts | 284° |
| 2026-04-27 15:50 | 3.03308 | 23.93086 | 33850 ft | 510 kts | 284° |
| 2026-04-27 15:50 | 3.04963 | 23.86174 | 33850 ft | 511 kts | 284° |
| 2026-04-27 15:51 | 3.06618 | 23.79263 | 33849 ft | 512 kts | 284° |
| 2026-04-27 15:51 | 3.08276 | 23.72335 | 33845 ft | 512 kts | 284° |
| 2026-04-27 15:52 | 3.09936 | 23.65400 | 33851 ft | 513 kts | 284° |
| 2026-04-27 15:52 | 3.11598 | 23.58454 | 33852 ft | 513 kts | 284° |
| 2026-04-27 15:53 | 3.13259 | 23.51507 | 33847 ft | 514 kts | 284° |
| 2026-04-27 15:53 | 3.14922 | 23.44553 | 33852 ft | 514 kts | 284° |
| 2026-04-27 15:54 | 3.16584 | 23.37597 | 33846 ft | 514 kts | 284° |
| 2026-04-27 15:54 | 3.18248 | 23.30636 | 33851 ft | 515 kts | 284° |
| 2026-04-27 15:55 | 3.19912 | 23.23667 | 33848 ft | 515 kts | 284° |
| 2026-04-27 15:55 | 3.21667 | 23.16710 | 33851 ft | 516 kts | 285° |
| 2026-04-27 15:56 | 3.23504 | 23.09776 | 33847 ft | 516 kts | 285° |
| 2026-04-27 15:56 | 3.25338 | 23.02833 | 33855 ft | 516 kts | 285° |
| 2026-04-27 15:57 | 3.27154 | 22.95888 | 33852 ft | 516 kts | 285° |
| 2026-04-27 15:57 | 3.28963 | 22.88940 | 33853 ft | 516 kts | 285° |
| 2026-04-27 15:58 | 3.30772 | 22.81994 | 33849 ft | 516 kts | 285° |
| 2026-04-27 15:58 | 3.32581 | 22.75047 | 33855 ft | 515 kts | 285° |
| 2026-04-27 15:59 | 3.34387 | 22.68112 | 33852 ft | 515 kts | 285° |
| 2026-04-27 15:59 | 3.36190 | 22.61186 | 33852 ft | 514 kts | 285° |
| 2026-04-27 16:00 | 3.37988 | 22.54278 | 33854 ft | 513 kts | 285° |
| 2026-04-27 16:00 | 3.39785 | 22.47374 | 33855 ft | 512 kts | 285° |
| 2026-04-27 16:01 | 3.41567 | 22.40521 | 33866 ft | 512 kts | 285° |
| 2026-04-27 16:01 | 3.43360 | 22.33626 | 33859 ft | 512 kts | 285° |
| 2026-04-27 16:02 | 3.45150 | 22.26738 | 33856 ft | 511 kts | 285° |
| 2026-04-27 16:02 | 3.46939 | 22.19855 | 33860 ft | 511 kts | 285° |
| 2026-04-27 16:03 | 3.48425 | 22.14133 | 33854 ft | 511 kts | 285° |
| 2026-04-27 16:03 | 3.50213 | 22.07249 | 33859 ft | 511 kts | 285° |
| 2026-04-27 16:04 | 3.51955 | 22.00342 | 33860 ft | 512 kts | 284° |
| 2026-04-27 16:04 | 3.53664 | 21.93429 | 33861 ft | 512 kts | 284° |
| 2026-04-27 16:05 | 3.55384 | 21.86504 | 33857 ft | 513 kts | 284° |
| 2026-04-27 16:05 | 3.57111 | 21.79576 | 33859 ft | 513 kts | 284° |
| 2026-04-27 16:06 | 3.58838 | 21.72645 | 33858 ft | 513 kts | 284° |
| 2026-04-27 16:06 | 3.60564 | 21.65710 | 33862 ft | 514 kts | 284° |
| 2026-04-27 16:07 | 3.62289 | 21.58774 | 33861 ft | 514 kts | 284° |
| 2026-04-27 16:07 | 3.64016 | 21.51832 | 33860 ft | 514 kts | 284° |
| 2026-04-27 16:08 | 3.65742 | 21.44888 | 33861 ft | 514 kts | 284° |
| 2026-04-27 16:08 | 3.67467 | 21.37951 | 33861 ft | 514 kts | 284° |
| 2026-04-27 16:09 | 3.69192 | 21.31007 | 33861 ft | 514 kts | 284° |
| 2026-04-27 16:09 | 3.71776 | 21.20602 | 33859 ft | 513 kts | 284° |
| 2026-04-27 16:10 | 3.75208 | 21.06774 | 33862 ft | 513 kts | 284° |
| 2026-04-27 16:11 | 3.77788 | 20.96374 | 33858 ft | 513 kts | 284° |
| 2026-04-27 16:12 | 3.80366 | 20.85977 | 33864 ft | 513 kts | 284° |
| 2026-04-27 16:13 | 3.82941 | 20.75584 | 33865 ft | 513 kts | 284° |
| 2026-04-27 16:13 | 3.85484 | 20.65181 | 33868 ft | 513 kts | 283° |
| 2026-04-27 16:14 | 3.88781 | 20.51294 | 33870 ft | 513 kts | 284° |
| 2026-04-27 16:15 | 3.92218 | 20.37425 | 33876 ft | 514 kts | 284° |
| 2026-04-27 16:16 | 3.95659 | 20.23519 | 33876 ft | 515 kts | 284° |
| 2026-04-27 16:17 | 3.99097 | 20.09583 | 33878 ft | 516 kts | 284° |
| 2026-04-27 16:18 | 4.02542 | 19.95613 | 33881 ft | 517 kts | 284° |
| 2026-04-27 16:19 | 4.04265 | 19.88621 | 33888 ft | 517 kts | 284° |
| 2026-04-27 16:20 | 4.07712 | 19.74629 | 33886 ft | 517 kts | 285° |
| 2026-04-27 16:21 | 4.10294 | 19.64137 | 33893 ft | 517 kts | 285° |
| 2026-04-27 16:22 | 4.13747 | 19.50153 | 33893 ft | 517 kts | 285° |
| 2026-04-27 16:22 | 4.16328 | 19.39705 | 33892 ft | 518 kts | 285° |
| 2026-04-27 16:23 | 4.18921 | 19.29198 | 33909 ft | 518 kts | 285° |
| 2026-04-27 16:24 | 4.20651 | 19.22183 | 33905 ft | 519 kts | 285° |
| 2026-04-27 16:25 | 4.24111 | 19.08145 | 33895 ft | 520 kts | 285° |
| 2026-04-27 16:26 | 4.27580 | 18.94064 | 33905 ft | 521 kts | 285° |
| 2026-04-27 16:27 | 4.31053 | 18.79950 | 33893 ft | 522 kts | 285° |
| 2026-04-27 16:28 | 4.35383 | 18.62339 | 33857 ft | 519 kts | 285° |
| 2026-04-27 16:29 | 4.39183 | 18.44686 | 33859 ft | 518 kts | 280° |
| 2026-04-27 16:30 | 4.41484 | 18.30503 | 33870 ft | 516 kts | 281° |
| 2026-04-27 16:31 | 4.44447 | 18.12786 | 33892 ft | 515 kts | 281° |
| 2026-04-27 16:32 | 4.46222 | 18.02171 | 33893 ft | 515 kts | 281° |
| 2026-04-27 16:33 | 4.47996 | 17.91542 | 33889 ft | 516 kts | 281° |
| 2026-04-27 16:33 | 4.49178 | 17.84454 | 33896 ft | 516 kts | 281° |
| 2026-04-27 16:34 | 4.50360 | 17.77363 | 33894 ft | 516 kts | 281° |
| 2026-04-27 16:34 | 4.51542 | 17.70267 | 33897 ft | 516 kts | 281° |
| 2026-04-27 16:35 | 4.52725 | 17.63162 | 33896 ft | 517 kts | 281° |
| 2026-04-27 16:36 | 4.54496 | 17.52512 | 33900 ft | 517 kts | 281° |
| 2026-04-27 16:36 | 4.55670 | 17.45452 | 33892 ft | 517 kts | 281° |
| 2026-04-27 16:37 | 4.56850 | 17.38352 | 33896 ft | 517 kts | 281° |
| 2026-04-27 16:37 | 4.58029 | 17.31248 | 33891 ft | 517 kts | 281° |
| 2026-04-27 16:38 | 4.59206 | 17.24152 | 33890 ft | 516 kts | 281° |
| 2026-04-27 16:38 | 4.60384 | 17.17049 | 33888 ft | 516 kts | 281° |
| 2026-04-27 16:39 | 4.61560 | 17.09955 | 33887 ft | 516 kts | 281° |
| 2026-04-27 16:39 | 4.62738 | 17.02857 | 33883 ft | 516 kts | 281° |
| 2026-04-27 16:40 | 4.63918 | 16.95771 | 33886 ft | 516 kts | 281° |
| 2026-04-27 16:40 | 4.65100 | 16.88679 | 33880 ft | 515 kts | 281° |
| 2026-04-27 16:41 | 4.66278 | 16.81602 | 33885 ft | 515 kts | 281° |
| 2026-04-27 16:41 | 4.67454 | 16.74526 | 33888 ft | 515 kts | 281° |
| 2026-04-27 16:42 | 4.68629 | 16.67454 | 33894 ft | 514 kts | 281° |
| 2026-04-27 16:42 | 4.69804 | 16.60378 | 33889 ft | 514 kts | 281° |
| 2026-04-27 16:43 | 4.70976 | 16.53310 | 33876 ft | 514 kts | 281° |
| 2026-04-27 16:43 | 4.72149 | 16.46243 | 33879 ft | 514 kts | 281° |
| 2026-04-27 16:44 | 4.73319 | 16.39182 | 33877 ft | 514 kts | 281° |
| 2026-04-27 16:44 | 4.74489 | 16.32118 | 33886 ft | 513 kts | 281° |
| 2026-04-27 16:45 | 4.75657 | 16.25059 | 33880 ft | 513 kts | 281° |
| 2026-04-27 16:45 | 4.76824 | 16.18003 | 33880 ft | 513 kts | 281° |
| 2026-04-27 16:46 | 4.77989 | 16.10953 | 33884 ft | 513 kts | 281° |
| 2026-04-27 16:46 | 4.79148 | 16.03939 | 33879 ft | 513 kts | 281° |
| 2026-04-27 16:47 | 4.80313 | 15.96881 | 33877 ft | 513 kts | 281° |
| 2026-04-27 16:47 | 4.81485 | 15.89778 | 33882 ft | 514 kts | 281° |
| 2026-04-27 16:48 | 4.82643 | 15.82754 | 33881 ft | 514 kts | 281° |
| 2026-04-27 16:48 | 4.83809 | 15.75677 | 33882 ft | 515 kts | 281° |
| 2026-04-27 16:49 | 4.85567 | 15.65028 | 34231 ft | 517 kts | 281° |
| 2026-04-27 16:49 | 4.86154 | 15.61482 | 34673 ft | 513 kts | 281° |
| 2026-04-27 16:49 | 4.86733 | 15.57973 | 35127 ft | 509 kts | 281° |
| 2026-04-27 16:50 | 4.87310 | 15.54485 | 35534 ft | 506 kts | 281° |
| 2026-04-27 16:50 | 4.87885 | 15.51008 | 35875 ft | 505 kts | 281° |
| 2026-04-27 16:50 | 4.89043 | 15.44001 | 35905 ft | 510 kts | 281° |
| 2026-04-27 16:51 | 4.90196 | 15.37008 | 35883 ft | 505 kts | 281° |
| 2026-04-27 16:51 | 4.91146 | 15.31248 | 35882 ft | 503 kts | 281° |
| 2026-04-27 16:52 | 4.92284 | 15.24345 | 35888 ft | 501 kts | 281° |
| 2026-04-27 16:52 | 4.93420 | 15.17450 | 35889 ft | 501 kts | 281° |
| 2026-04-27 16:53 | 4.94555 | 15.10555 | 35892 ft | 501 kts | 281° |
| 2026-04-27 16:53 | 4.95686 | 15.03648 | 35894 ft | 502 kts | 281° |
| 2026-04-27 16:54 | 4.96817 | 14.96731 | 35896 ft | 503 kts | 281° |
| 2026-04-27 16:54 | 4.97948 | 14.89803 | 35893 ft | 504 kts | 281° |
| 2026-04-27 16:55 | 4.99082 | 14.82859 | 35899 ft | 504 kts | 281° |
| 2026-04-27 16:55 | 5.00216 | 14.75914 | 35895 ft | 505 kts | 281° |
| 2026-04-27 16:56 | 5.01350 | 14.68971 | 35898 ft | 505 kts | 281° |
| 2026-04-27 16:56 | 5.02483 | 14.62018 | 35903 ft | 505 kts | 281° |
| 2026-04-27 16:57 | 5.03614 | 14.55075 | 35903 ft | 505 kts | 281° |
| 2026-04-27 16:57 | 5.04744 | 14.48133 | 35906 ft | 505 kts | 281° |
| 2026-04-27 16:58 | 5.05875 | 14.41186 | 35906 ft | 504 kts | 281° |
| 2026-04-27 16:58 | 5.07003 | 14.34244 | 35906 ft | 504 kts | 281° |
| 2026-04-27 16:59 | 5.08130 | 14.27307 | 35907 ft | 504 kts | 281° |
| 2026-04-27 16:59 | 5.09249 | 14.20417 | 35908 ft | 504 kts | 281° |
| 2026-04-27 17:00 | 5.10936 | 14.10018 | 35910 ft | 504 kts | 281° |
| 2026-04-27 17:01 | 5.12060 | 14.03081 | 35908 ft | 504 kts | 281° |
| 2026-04-27 17:01 | 5.13185 | 13.96139 | 35904 ft | 504 kts | 281° |
| 2026-04-27 17:02 | 5.14308 | 13.89206 | 35899 ft | 504 kts | 281° |
| 2026-04-27 17:02 | 5.15431 | 13.82257 | 35898 ft | 504 kts | 281° |
| 2026-04-27 17:03 | 5.16553 | 13.75312 | 35902 ft | 505 kts | 281° |
| 2026-04-27 17:03 | 5.17677 | 13.68355 | 35902 ft | 505 kts | 281° |
| 2026-04-27 17:04 | 5.18801 | 13.61390 | 35894 ft | 506 kts | 281° |
| 2026-04-27 17:04 | 5.19926 | 13.54415 | 35898 ft | 506 kts | 281° |
| 2026-04-27 17:05 | 5.21050 | 13.47444 | 35898 ft | 507 kts | 281° |
| 2026-04-27 17:05 | 5.22174 | 13.40461 | 35897 ft | 507 kts | 281° |
| 2026-04-27 17:06 | 5.23297 | 13.33484 | 35898 ft | 507 kts | 281° |
| 2026-04-27 17:06 | 5.24419 | 13.26508 | 35897 ft | 506 kts | 281° |
| 2026-04-27 17:07 | 5.25539 | 13.19539 | 35900 ft | 506 kts | 281° |
| 2026-04-27 17:07 | 5.26658 | 13.12567 | 35905 ft | 506 kts | 281° |
| 2026-04-27 17:08 | 5.27775 | 13.05611 | 35899 ft | 505 kts | 281° |
| 2026-04-27 17:08 | 5.28889 | 12.98663 | 35898 ft | 504 kts | 281° |
| 2026-04-27 17:09 | 5.29994 | 12.91767 | 35896 ft | 503 kts | 281° |
| 2026-04-27 17:09 | 5.31103 | 12.84842 | 35896 ft | 503 kts | 281° |
| 2026-04-27 17:10 | 5.32212 | 12.77912 | 35896 ft | 503 kts | 281° |
| 2026-04-27 17:10 | 5.33319 | 12.70986 | 35903 ft | 503 kts | 281° |
| 2026-04-27 17:11 | 5.34426 | 12.64058 | 35903 ft | 503 kts | 281° |
| 2026-04-27 17:11 | 5.36089 | 12.53645 | 35903 ft | 504 kts | 281° |
| 2026-04-27 17:12 | 5.37751 | 12.43221 | 35911 ft | 505 kts | 281° |
| 2026-04-27 17:13 | 5.38861 | 12.36256 | 35903 ft | 506 kts | 280° |
| 2026-04-27 17:13 | 5.39971 | 12.29284 | 35915 ft | 506 kts | 280° |
| 2026-04-27 17:14 | 5.41081 | 12.22301 | 35916 ft | 507 kts | 280° |
| 2026-04-27 17:14 | 5.42195 | 12.15299 | 35915 ft | 508 kts | 280° |
| 2026-04-27 17:15 | 5.43308 | 12.08290 | 35921 ft | 509 kts | 280° |
| 2026-04-27 17:15 | 5.44423 | 12.01271 | 35925 ft | 509 kts | 280° |
| 2026-04-27 17:16 | 5.45538 | 11.94247 | 35919 ft | 510 kts | 280° |
| 2026-04-27 17:16 | 5.46646 | 11.87269 | 35920 ft | 510 kts | 280° |
| 2026-04-27 17:17 | 5.47759 | 11.80247 | 35912 ft | 510 kts | 280° |
| 2026-04-27 17:17 | 5.48872 | 11.73225 | 35917 ft | 509 kts | 280° |
| 2026-04-27 17:18 | 5.50537 | 11.62707 | 35923 ft | 508 kts | 280° |
| 2026-04-27 17:18 | 5.51645 | 11.55703 | 35917 ft | 508 kts | 280° |
| 2026-04-27 17:19 | 5.52750 | 11.48710 | 35920 ft | 507 kts | 280° |
| 2026-04-27 17:19 | 5.53854 | 11.41719 | 35926 ft | 507 kts | 280° |
| 2026-04-27 17:20 | 5.54956 | 11.34735 | 35923 ft | 506 kts | 280° |
| 2026-04-27 17:20 | 5.56056 | 11.27756 | 35928 ft | 506 kts | 279° |
| 2026-04-27 17:21 | 5.57155 | 11.20780 | 35924 ft | 506 kts | 279° |
| 2026-04-27 17:21 | 5.58253 | 11.13808 | 35928 ft | 506 kts | 279° |
| 2026-04-27 17:22 | 5.59342 | 11.06879 | 35926 ft | 506 kts | 279° |
| 2026-04-27 17:22 | 5.60439 | 10.99901 | 35935 ft | 506 kts | 279° |
| 2026-04-27 17:23 | 5.61535 | 10.92927 | 35932 ft | 506 kts | 279° |
| 2026-04-27 17:23 | 5.62630 | 10.85948 | 35939 ft | 506 kts | 279° |
| 2026-04-27 17:24 | 5.63724 | 10.78970 | 35941 ft | 506 kts | 279° |
| 2026-04-27 17:24 | 5.64542 | 10.71955 | 35942 ft | 507 kts | 273° |
| 2026-04-27 17:25 | 5.64830 | 10.64888 | 35945 ft | 507 kts | 272° |
| 2026-04-27 17:25 | 5.65091 | 10.57816 | 35947 ft | 507 kts | 272° |
| 2026-04-27 17:26 | 5.65386 | 10.50742 | 35955 ft | 507 kts | 272° |
| 2026-04-27 17:26 | 5.65698 | 10.43679 | 35952 ft | 506 kts | 273° |
| 2026-04-27 17:27 | 5.66013 | 10.36620 | 35964 ft | 506 kts | 273° |
| 2026-04-27 17:27 | 5.66325 | 10.29566 | 35965 ft | 506 kts | 273° |
| 2026-04-27 17:28 | 5.66634 | 10.22510 | 35973 ft | 506 kts | 273° |
| 2026-04-27 17:29 | 5.67097 | 10.11928 | 35973 ft | 506 kts | 272° |
| 2026-04-27 17:29 | 5.67405 | 10.04859 | 35967 ft | 507 kts | 272° |
| 2026-04-27 17:30 | 5.67712 | 9.97790 | 35954 ft | 507 kts | 272° |
| 2026-04-27 17:30 | 5.68172 | 9.87161 | 35955 ft | 508 kts | 272° |
| 2026-04-27 17:31 | 5.68479 | 9.80074 | 35920 ft | 509 kts | 272° |
| 2026-04-27 17:31 | 5.68784 | 9.72972 | 35932 ft | 509 kts | 272° |
| 2026-04-27 17:32 | 5.69239 | 9.62365 | 35906 ft | 510 kts | 272° |
| 2026-04-27 17:33 | 5.69543 | 9.55257 | 35900 ft | 509 kts | 272° |
| 2026-04-27 17:33 | 5.69846 | 9.48157 | 35890 ft | 509 kts | 272° |
| 2026-04-27 17:34 | 5.70148 | 9.41046 | 35892 ft | 510 kts | 272° |
| 2026-04-27 17:34 | 5.70450 | 9.33930 | 35880 ft | 510 kts | 272° |
| 2026-04-27 17:35 | 5.71101 | 9.26855 | 35884 ft | 509 kts | 280° |
| 2026-04-27 17:35 | 5.72339 | 9.19847 | 35867 ft | 510 kts | 281° |
| 2026-04-27 17:36 | 5.73581 | 9.12846 | 35875 ft | 510 kts | 280° |
| 2026-04-27 17:36 | 5.74779 | 9.05836 | 35874 ft | 509 kts | 280° |
| 2026-04-27 17:37 | 5.75966 | 8.98815 | 35866 ft | 509 kts | 280° |
| 2026-04-27 17:37 | 5.77152 | 8.91810 | 35870 ft | 509 kts | 280° |
| 2026-04-27 17:38 | 5.78357 | 8.84811 | 35866 ft | 509 kts | 281° |
| 2026-04-27 17:38 | 5.79688 | 8.77835 | 35870 ft | 508 kts | 282° |
| 2026-04-27 17:39 | 5.81039 | 8.70871 | 35866 ft | 508 kts | 282° |
| 2026-04-27 17:39 | 5.82366 | 8.63915 | 35867 ft | 507 kts | 282° |
| 2026-04-27 17:40 | 5.83675 | 8.57013 | 35866 ft | 506 kts | 282° |
| 2026-04-27 17:40 | 5.84989 | 8.50083 | 35867 ft | 505 kts | 282° |
| 2026-04-27 17:41 | 5.86261 | 8.43151 | 35859 ft | 504 kts | 281° |
| 2026-04-27 17:41 | 5.87491 | 8.36214 | 35856 ft | 504 kts | 281° |
| 2026-04-27 17:42 | 5.88514 | 8.30451 | 35855 ft | 504 kts | 281° |
| 2026-04-27 17:42 | 5.89749 | 8.23529 | 35854 ft | 504 kts | 281° |
| 2026-04-27 17:43 | 5.90988 | 8.16601 | 35855 ft | 504 kts | 281° |
| 2026-04-27 17:43 | 5.92225 | 8.09678 | 35854 ft | 504 kts | 281° |
| 2026-04-27 17:44 | 5.93462 | 8.02754 | 35856 ft | 504 kts | 281° |
| 2026-04-27 17:44 | 5.94699 | 7.95822 | 35856 ft | 504 kts | 281° |
| 2026-04-27 17:45 | 5.95934 | 7.88891 | 35858 ft | 504 kts | 281° |
| 2026-04-27 17:45 | 5.97167 | 7.81965 | 35861 ft | 504 kts | 281° |
| 2026-04-27 17:46 | 5.98402 | 7.75030 | 35860 ft | 504 kts | 281° |
| 2026-04-27 17:46 | 5.99636 | 7.68095 | 35865 ft | 504 kts | 281° |
| 2026-04-27 17:47 | 6.00868 | 7.61161 | 35865 ft | 504 kts | 281° |
| 2026-04-27 17:47 | 6.02100 | 7.54223 | 35870 ft | 505 kts | 281° |
| 2026-04-27 17:48 | 6.03332 | 7.47284 | 35876 ft | 505 kts | 281° |
| 2026-04-27 17:48 | 6.04565 | 7.40329 | 35869 ft | 505 kts | 281° |
| 2026-04-27 17:49 | 6.05791 | 7.33381 | 35871 ft | 506 kts | 281° |
| 2026-04-27 17:49 | 6.07014 | 7.26417 | 35875 ft | 506 kts | 281° |
| 2026-04-27 17:50 | 6.08238 | 7.19457 | 35874 ft | 506 kts | 281° |
| 2026-04-27 17:50 | 6.10074 | 7.09010 | 35874 ft | 506 kts | 281° |
| 2026-04-27 17:51 | 6.11297 | 7.02045 | 35874 ft | 506 kts | 281° |
| 2026-04-27 17:51 | 6.12535 | 6.95130 | 35872 ft | 506 kts | 281° |
| 2026-04-27 17:52 | 6.13792 | 6.88173 | 35873 ft | 506 kts | 281° |
| 2026-04-27 17:52 | 6.15046 | 6.81215 | 35870 ft | 506 kts | 281° |
| 2026-04-27 17:53 | 6.16295 | 6.74265 | 35870 ft | 505 kts | 281° |
| 2026-04-27 17:53 | 6.17542 | 6.67312 | 35871 ft | 505 kts | 281° |
| 2026-04-27 17:54 | 6.18789 | 6.60363 | 35870 ft | 505 kts | 281° |
| 2026-04-27 17:54 | 6.20035 | 6.53412 | 35876 ft | 505 kts | 281° |
| 2026-04-27 17:55 | 6.21277 | 6.46461 | 35872 ft | 505 kts | 281° |
| 2026-04-27 17:55 | 6.22505 | 6.39513 | 35878 ft | 505 kts | 281° |
| 2026-04-27 17:56 | 6.23732 | 6.32562 | 35875 ft | 505 kts | 281° |
| 2026-04-27 17:56 | 6.24958 | 6.25615 | 35879 ft | 505 kts | 281° |
| 2026-04-27 17:57 | 6.26185 | 6.18665 | 35875 ft | 505 kts | 281° |
| 2026-04-27 17:57 | 6.27411 | 6.11716 | 35875 ft | 505 kts | 281° |
| 2026-04-27 17:58 | 6.28635 | 6.04770 | 35876 ft | 504 kts | 281° |
| 2026-04-27 17:58 | 6.29858 | 5.97827 | 35873 ft | 504 kts | 281° |
| 2026-04-27 17:59 | 6.31079 | 5.90888 | 35871 ft | 504 kts | 281° |
| 2026-04-27 17:59 | 6.32298 | 5.83956 | 35871 ft | 504 kts | 281° |
| 2026-04-27 18:00 | 6.33516 | 5.77026 | 35873 ft | 503 kts | 281° |
| 2026-04-27 18:00 | 6.34733 | 5.70095 | 35871 ft | 503 kts | 281° |
| 2026-04-27 18:01 | 6.35948 | 5.63166 | 35871 ft | 503 kts | 281° |
| 2026-04-27 18:01 | 6.37161 | 5.56248 | 35866 ft | 502 kts | 281° |
| 2026-04-27 18:02 | 6.38370 | 5.49340 | 35869 ft | 502 kts | 281° |
| 2026-04-27 18:02 | 6.39579 | 5.42432 | 35868 ft | 502 kts | 281° |
| 2026-04-27 18:03 | 6.40787 | 5.35527 | 35867 ft | 502 kts | 281° |
| 2026-04-27 18:03 | 6.41393 | 5.32057 | 35496 ft | 508 kts | 281° |
| 2026-04-27 18:03 | 6.42011 | 5.28526 | 34645 ft | 515 kts | 281° |
| 2026-04-27 18:04 | 6.42631 | 5.24975 | 33791 ft | 516 kts | 280° |
| 2026-04-27 18:04 | 6.43250 | 5.21426 | 32826 ft | 516 kts | 280° |
| 2026-04-27 18:04 | 6.43870 | 5.17875 | 31847 ft | 516 kts | 281° |
| 2026-04-27 18:04 | 6.44489 | 5.14320 | 30868 ft | 516 kts | 280° |
| 2026-04-27 18:05 | 6.45100 | 5.10813 | 30065 ft | 500 kts | 280° |
| 2026-04-27 18:05 | 6.45688 | 5.07435 | 29308 ft | 482 kts | 280° |
| 2026-04-27 18:05 | 6.46261 | 5.04144 | 28641 ft | 475 kts | 280° |
| 2026-04-27 18:05 | 6.46829 | 5.00883 | 28007 ft | 472 kts | 280° |
| 2026-04-27 18:06 | 6.47386 | 4.97683 | 27406 ft | 469 kts | 280° |
| 2026-04-27 18:06 | 6.47947 | 4.94460 | 26807 ft | 467 kts | 280° |
| 2026-04-27 18:06 | 6.48504 | 4.91259 | 26216 ft | 464 kts | 280° |
| 2026-04-27 18:06 | 6.49059 | 4.88071 | 25618 ft | 462 kts | 280° |
| 2026-04-27 18:07 | 6.49611 | 4.84894 | 25026 ft | 460 kts | 280° |
| 2026-04-27 18:07 | 6.50160 | 4.81733 | 24439 ft | 459 kts | 279° |
| 2026-04-27 18:07 | 6.50707 | 4.78575 | 23870 ft | 457 kts | 279° |
| 2026-04-27 18:07 | 6.51186 | 4.75421 | 23336 ft | 455 kts | 277° |
| 2026-04-27 18:08 | 6.51608 | 4.72278 | 22734 ft | 452 kts | 277° |
| 2026-04-27 18:08 | 6.52020 | 4.69148 | 22077 ft | 451 kts | 277° |
| 2026-04-27 18:08 | 6.52441 | 4.66031 | 21509 ft | 448 kts | 277° |
| 2026-04-27 18:08 | 6.52869 | 4.62942 | 20961 ft | 445 kts | 278° |
| 2026-04-27 18:09 | 6.53299 | 4.59869 | 20423 ft | 442 kts | 278° |
| 2026-04-27 18:09 | 6.53717 | 4.56813 | 19887 ft | 440 kts | 278° |
| 2026-04-27 18:09 | 6.54126 | 4.53777 | 19350 ft | 438 kts | 278° |
| 2026-04-27 18:09 | 6.54532 | 4.50749 | 18814 ft | 436 kts | 278° |
| 2026-04-27 18:10 | 6.54938 | 4.47732 | 18281 ft | 435 kts | 278° |
| 2026-04-27 18:10 | 6.55343 | 4.44724 | 17696 ft | 434 kts | 278° |
| 2026-04-27 18:10 | 6.55748 | 4.41726 | 17132 ft | 431 kts | 278° |
| 2026-04-27 18:10 | 6.56140 | 4.38748 | 16603 ft | 428 kts | 277° |
| 2026-04-27 18:11 | 6.56502 | 4.35781 | 16082 ft | 426 kts | 276° |
| 2026-04-27 18:11 | 6.56848 | 4.32832 | 15569 ft | 424 kts | 276° |
| 2026-04-27 18:11 | 6.57189 | 4.29895 | 15058 ft | 422 kts | 276° |
| 2026-04-27 18:11 | 6.57531 | 4.26964 | 14547 ft | 421 kts | 276° |
| 2026-04-27 18:12 | 6.57874 | 4.24042 | 14029 ft | 420 kts | 276° |
| 2026-04-27 18:12 | 6.58218 | 4.21125 | 13480 ft | 420 kts | 276° |
| 2026-04-27 18:12 | 6.58561 | 4.18219 | 12940 ft | 418 kts | 276° |
| 2026-04-27 18:12 | 6.58904 | 4.15319 | 12423 ft | 416 kts | 276° |
| 2026-04-27 18:13 | 6.59246 | 4.12434 | 11916 ft | 415 kts | 276° |
| 2026-04-27 18:13 | 6.59587 | 4.09564 | 11406 ft | 408 kts | 276° |
| 2026-04-27 18:13 | 6.59916 | 4.06792 | 10945 ft | 390 kts | 277° |
| 2026-04-27 18:13 | 6.60232 | 4.04127 | 10804 ft | 379 kts | 277° |
| 2026-04-27 18:14 | 6.60540 | 4.01522 | 10648 ft | 371 kts | 277° |
| 2026-04-27 18:14 | 6.60842 | 3.98975 | 10485 ft | 363 kts | 277° |
| 2026-04-27 18:14 | 6.61136 | 3.96485 | 10324 ft | 351 kts | 277° |
| 2026-04-27 18:14 | 6.61416 | 3.94114 | 10166 ft | 332 kts | 277° |
| 2026-04-27 18:15 | 6.61680 | 3.91881 | 10041 ft | 322 kts | 277° |
| 2026-04-27 18:15 | 6.61940 | 3.89662 | 9913 ft | 317 kts | 277° |
| 2026-04-27 18:15 | 6.62197 | 3.87469 | 9666 ft | 317 kts | 277° |
| 2026-04-27 18:15 | 6.62456 | 3.85264 | 9344 ft | 318 kts | 277° |
| 2026-04-27 18:16 | 6.62717 | 3.83052 | 9028 ft | 319 kts | 277° |
| 2026-04-27 18:16 | 6.62979 | 3.80829 | 8700 ft | 321 kts | 277° |
| 2026-04-27 18:16 | 6.63237 | 3.78639 | 8404 ft | 311 kts | 277° |
| 2026-04-27 18:16 | 6.63488 | 3.76507 | 8055 ft | 302 kts | 277° |
| 2026-04-27 18:17 | 6.63736 | 3.74407 | 7760 ft | 303 kts | 277° |
| 2026-04-27 18:17 | 6.63985 | 3.72297 | 7457 ft | 305 kts | 277° |
| 2026-04-27 18:17 | 6.64236 | 3.70178 | 7144 ft | 305 kts | 277° |
| 2026-04-27 18:17 | 6.64482 | 3.68084 | 6824 ft | 297 kts | 277° |
| 2026-04-27 18:18 | 6.64721 | 3.66051 | 6510 ft | 288 kts | 277° |
| 2026-04-27 18:18 | 6.64954 | 3.64066 | 6228 ft | 284 kts | 277° |
| 2026-04-27 18:18 | 6.65185 | 3.62111 | 5941 ft | 279 kts | 277° |
| 2026-04-27 18:18 | 6.65412 | 3.60189 | 5632 ft | 275 kts | 277° |
| 2026-04-27 18:19 | 6.65635 | 3.58291 | 5357 ft | 272 kts | 278° |
| 2026-04-27 18:19 | 6.65859 | 3.56395 | 5088 ft | 274 kts | 278° |
| 2026-04-27 18:19 | 6.66084 | 3.54496 | 4817 ft | 272 kts | 278° |
| 2026-04-27 18:19 | 6.66305 | 3.52613 | 4514 ft | 270 kts | 278° |
| 2026-04-27 18:20 | 6.66524 | 3.50753 | 4252 ft | 266 kts | 278° |
| 2026-04-27 18:20 | 6.66739 | 3.48918 | 4019 ft | 264 kts | 279° |
| 2026-04-27 18:20 | 6.66953 | 3.47108 | 3767 ft | 258 kts | 278° |
| 2026-04-27 18:20 | 6.67160 | 3.45338 | 3492 ft | 252 kts | 278° |
| 2026-04-27 18:21 | 6.67362 | 3.43611 | 3232 ft | 246 kts | 278° |
| 2026-04-27 18:21 | 6.67557 | 3.41950 | 3095 ft | 232 kts | 278° |
| 2026-04-27 18:21 | 6.67740 | 3.40392 | 3030 ft | 216 kts | 277° |
| 2026-04-27 18:21 | 6.67910 | 3.38942 | 2938 ft | 203 kts | 277° |
| 2026-04-27 18:22 | 6.68076 | 3.37526 | 2677 ft | 204 kts | 277° |
| 2026-04-27 18:22 | 6.68240 | 3.36127 | 2479 ft | 199 kts | 276° |
| 2026-04-27 18:22 | 6.68399 | 3.34776 | 2301 ft | 187 kts | 276° |
| 2026-04-27 18:22 | 6.68548 | 3.33519 | 2042 ft | 173 kts | 273° |
| 2026-04-27 18:23 | 6.68392 | 3.32445 | 1745 ft | 148 kts | 230° |
| 2026-04-27 18:23 | 6.67545 | 3.31921 | 1702 ft | 147 kts | 193° |
| 2026-04-27 18:23 | 6.66542 | 3.31672 | 1495 ft | 146 kts | 194° |
| 2026-04-27 18:23 | 6.65578 | 3.31415 | 1381 ft | 144 kts | 188° |
| 2026-04-27 18:24 | 6.64579 | 3.31286 | 1192 ft | 145 kts | 183° |
| 2026-04-27 18:24 | 6.63590 | 3.31243 | 1007 ft | 138 kts | 178° |
| 2026-04-27 18:24 | 6.62626 | 3.31268 | 890 ft | 146 kts | 178° |
| 2026-04-27 18:24 | 6.61613 | 3.31298 | 665 ft | 144 kts | 180° |
| 2026-04-27 18:25 | 6.60631 | 3.31291 | 479 ft | 144 kts | 179° |
| 2026-04-27 18:25 | 6.59618 | 3.31310 | 279 ft | 147 kts | 179° |
| 2026-04-27 18:25 | 6.58605 | 3.31320 | 95 ft | 145 kts | 179° |
| 2026-04-27 18:25 | 6.57685 | 3.31329 | 60 ft | 111 kts | 179° |
| 2026-04-27 18:26 | 6.57086 | 3.31335 | 66 ft | 74 kts | 179° |
| 2026-04-27 18:26 | 6.56706 | 3.31342 | 69 ft | 38 kts | 178° |
| 2026-04-27 18:26 | 6.56485 | 3.31407 | 65 ft | 28 kts | 148° |
| 2026-04-27 18:26 | 6.56408 | 3.31470 | 61 ft | 12 kts | 118° |
| 2026-04-27 18:27 | 6.56428 | 3.31538 | 62 ft | 12 kts | 28° |
| 2026-04-27 18:27 | 6.56508 | 3.31546 | 73 ft | 12 kts | 358° |
| 2026-04-27 18:27 | 6.56588 | 3.31544 | 73 ft | 12 kts | 359° |
| 2026-04-27 18:27 | 6.56669 | 3.31542 | 66 ft | 12 kts | 359° |
| 2026-04-27 18:28 | 6.56750 | 3.31541 | 64 ft | 12 kts | 359° |
| 2026-04-27 18:28 | 6.56826 | 3.31542 | 65 ft | 9 kts | 11° |
| 2026-04-27 18:28 | 6.56856 | 3.31596 | 73 ft | 10 kts | 82° |
| 2026-04-27 18:28 | 6.56860 | 3.31641 | 76 ft | 10 kts | 77° |
| 2026-04-27 18:29 | 6.56882 | 3.31703 | 77 ft | 9 kts | 89° |
| 2026-04-27 18:29 | 6.56883 | 3.31761 | 77 ft | 7 kts | 89° |
| 2026-04-27 18:29 | 6.56883 | 3.31773 | 77 ft | 0 kts | 89° |